<?xml version="1.0" encoding="UTF-8" standalone="no" ?>
<gpx xmlns="http://www.topografix.com/GPX/1/1" xmlns:xsi="http://www.w3.org/2001/XMLSchema-instance" xsi:schemaLocation="http://www.topografix.com/GPX/1/1 http://www.topografix.com/GPX/1/1/gpx.xsd" version="1.1" creator="VisuGPX - https://www.visugpx.com">
  <metadata>
    <name>UTP2022 version mars 2022</name>
  </metadata>
  <wpt lat="45.46401" lon="4.67864">
    <ele>652.9</ele>
    <name><![CDATA[]]></name>
    <desc><![CDATA[]]></desc>
  </wpt>
  <wpt lat="45.46394" lon="4.76513">
    <ele>164.4</ele>
    <name><![CDATA[BH 12H45]]></name>
    <desc><![CDATA[]]></desc>
  </wpt>
  <wpt lat="45.36809" lon="4.66266">
    <ele>567.1</ele>
    <name><![CDATA[BH 07H30]]></name>
    <desc><![CDATA[]]></desc>
  </wpt>
  <wpt lat="45.36829" lon="4.66295">
    <ele>567.8</ele>
    <name><![CDATA[]]></name>
    <desc><![CDATA[]]></desc>
  </wpt>
  <wpt lat="45.36901" lon="4.66122">
    <ele>573.2</ele>
    <name><![CDATA[BH 12H45]]></name>
    <desc><![CDATA[]]></desc>
  </wpt>
  <wpt lat="45.4211" lon="4.62391">
    <ele>880</ele>
    <name><![CDATA[]]></name>
    <desc><![CDATA[]]></desc>
  </wpt>
  <wpt lat="45.36894" lon="4.51573">
    <ele>1174.4</ele>
    <name><![CDATA[BH 18H30]]></name>
    <desc><![CDATA[]]></desc>
  </wpt>
  <wpt lat="45.3691" lon="4.51605">
    <ele>1173.4</ele>
    <name><![CDATA[]]></name>
    <desc><![CDATA[]]></desc>
  </wpt>
  <wpt lat="45.3902" lon="4.57403">
    <ele>1307.5</ele>
    <name><![CDATA[]]></name>
    <desc><![CDATA[]]></desc>
  </wpt>
  <wpt lat="45.37452" lon="4.44988">
    <ele>1020.9</ele>
    <name><![CDATA[]]></name>
    <desc><![CDATA[]]></desc>
  </wpt>
  <wpt lat="45.3141" lon="4.45617">
    <ele>1154.5</ele>
    <name><![CDATA[]]></name>
    <desc><![CDATA[]]></desc>
  </wpt>
  <wpt lat="45.36788" lon="4.5284">
    <ele>1200.8</ele>
    <name><![CDATA[BH 3H15]]></name>
    <desc><![CDATA[]]></desc>
  </wpt>
  <wpt lat="45.3675" lon="4.52904">
    <ele>1199</ele>
    <name><![CDATA[]]></name>
    <desc><![CDATA[]]></desc>
  </wpt>
  <wpt lat="45.34441" lon="4.60428">
    <ele>830.5</ele>
    <name><![CDATA[]]></name>
    <desc><![CDATA[]]></desc>
  </wpt>
  <trk>
    <name><![CDATA[13160639-UTP2022]]></name>
    <trkseg>
      <trkpt lat="45.46147" lon="4.76408">
        <ele>151</ele>
        <time>2022-03-11T06:14:45Z</time>
      </trkpt>
      <trkpt lat="45.46201" lon="4.76339">
        <ele>154</ele>
        <time>2022-03-11T06:15:21Z</time>
      </trkpt>
      <trkpt lat="45.46321" lon="4.76572">
        <ele>157</ele>
        <time>2022-03-11T06:17:03Z</time>
      </trkpt>
      <trkpt lat="45.46368" lon="4.76581">
        <ele>159</ele>
        <time>2022-03-11T06:17:26Z</time>
      </trkpt>
      <trkpt lat="45.46431" lon="4.76562">
        <ele>166</ele>
        <time>2022-03-11T06:17:59Z</time>
      </trkpt>
      <trkpt lat="45.46428" lon="4.76523">
        <ele>166</ele>
        <time>2022-03-11T06:18:12Z</time>
      </trkpt>
      <trkpt lat="45.46367" lon="4.76505">
        <ele>163</ele>
        <time>2022-03-11T06:18:44Z</time>
      </trkpt>
      <trkpt lat="45.46371" lon="4.76439">
        <ele>175</ele>
        <time>2022-03-11T06:19:07Z</time>
      </trkpt>
      <trkpt lat="45.46408" lon="4.76433">
        <ele>179</ele>
        <time>2022-03-11T06:19:26Z</time>
      </trkpt>
      <trkpt lat="45.46382" lon="4.76366">
        <ele>194</ele>
        <time>2022-03-11T06:19:52Z</time>
      </trkpt>
      <trkpt lat="45.46414" lon="4.76354">
        <ele>204</ele>
        <time>2022-03-11T06:20:09Z</time>
      </trkpt>
      <trkpt lat="45.46439" lon="4.76281">
        <ele>222</ele>
        <time>2022-03-11T06:20:37Z</time>
      </trkpt>
      <trkpt lat="45.46547" lon="4.76238">
        <ele>252</ele>
        <time>2022-03-11T06:21:34Z</time>
      </trkpt>
      <trkpt lat="45.46603" lon="4.76212">
        <ele>264</ele>
        <time>2022-03-11T06:22:03Z</time>
      </trkpt>
      <trkpt lat="45.46644" lon="4.76128">
        <ele>281</ele>
        <time>2022-03-11T06:22:39Z</time>
      </trkpt>
      <trkpt lat="45.46721" lon="4.75908">
        <ele>301</ele>
        <time>2022-03-11T06:24:05Z</time>
      </trkpt>
      <trkpt lat="45.46826" lon="4.75476">
        <ele>313</ele>
        <time>2022-03-11T06:26:46Z</time>
      </trkpt>
      <trkpt lat="45.4703" lon="4.75107">
        <ele>324</ele>
        <time>2022-03-11T06:29:31Z</time>
      </trkpt>
      <trkpt lat="45.47099" lon="4.74791">
        <ele>329</ele>
        <time>2022-03-11T06:31:27Z</time>
      </trkpt>
      <trkpt lat="45.47091" lon="4.74705">
        <ele>330</ele>
        <time>2022-03-11T06:31:57Z</time>
      </trkpt>
      <trkpt lat="45.47169" lon="4.74499">
        <ele>331</ele>
        <time>2022-03-11T06:33:19Z</time>
      </trkpt>
      <trkpt lat="45.47299" lon="4.74387">
        <ele>325</ele>
        <time>2022-03-11T06:34:35Z</time>
      </trkpt>
      <trkpt lat="45.47337" lon="4.74364">
        <ele>320</ele>
        <time>2022-03-11T06:34:56Z</time>
      </trkpt>
      <trkpt lat="45.47336" lon="4.74335">
        <ele>319</ele>
        <time>2022-03-11T06:35:06Z</time>
      </trkpt>
      <trkpt lat="45.4737" lon="4.74317">
        <ele>318</ele>
        <time>2022-03-11T06:35:24Z</time>
      </trkpt>
      <trkpt lat="45.47414" lon="4.74346">
        <ele>315</ele>
        <time>2022-03-11T06:35:49Z</time>
      </trkpt>
      <trkpt lat="45.47451" lon="4.74375">
        <ele>319</ele>
        <time>2022-03-11T06:36:10Z</time>
      </trkpt>
      <trkpt lat="45.47543" lon="4.74454">
        <ele>330</ele>
        <time>2022-03-11T06:37:04Z</time>
      </trkpt>
      <trkpt lat="45.47611" lon="4.74416">
        <ele>334</ele>
        <time>2022-03-11T06:37:40Z</time>
      </trkpt>
      <trkpt lat="45.47782" lon="4.74314">
        <ele>341</ele>
        <time>2022-03-11T06:39:13Z</time>
      </trkpt>
      <trkpt lat="45.47876" lon="4.74202">
        <ele>344</ele>
        <time>2022-03-11T06:40:14Z</time>
      </trkpt>
      <trkpt lat="45.48023" lon="4.73909">
        <ele>354</ele>
        <time>2022-03-11T06:42:21Z</time>
      </trkpt>
      <trkpt lat="45.4828" lon="4.74106">
        <ele>364</ele>
        <time>2022-03-11T06:44:47Z</time>
      </trkpt>
      <trkpt lat="45.48338" lon="4.74102">
        <ele>369</ele>
        <time>2022-03-11T06:45:16Z</time>
      </trkpt>
      <trkpt lat="45.48357" lon="4.7405">
        <ele>370</ele>
        <time>2022-03-11T06:45:36Z</time>
      </trkpt>
      <trkpt lat="45.48369" lon="4.73912">
        <ele>373</ele>
        <time>2022-03-11T06:46:25Z</time>
      </trkpt>
      <trkpt lat="45.48424" lon="4.73895">
        <ele>376</ele>
        <time>2022-03-11T06:46:53Z</time>
      </trkpt>
      <trkpt lat="45.48472" lon="4.73787">
        <ele>379</ele>
        <time>2022-03-11T06:47:38Z</time>
      </trkpt>
      <trkpt lat="45.48494" lon="4.73711">
        <ele>381</ele>
        <time>2022-03-11T06:48:07Z</time>
      </trkpt>
      <trkpt lat="45.48503" lon="4.73656">
        <ele>382</ele>
        <time>2022-03-11T06:48:27Z</time>
      </trkpt>
      <trkpt lat="45.48454" lon="4.73538">
        <ele>385</ele>
        <time>2022-03-11T06:49:15Z</time>
      </trkpt>
      <trkpt lat="45.4844" lon="4.73386">
        <ele>390</ele>
        <time>2022-03-11T06:50:09Z</time>
      </trkpt>
      <trkpt lat="45.48498" lon="4.73213">
        <ele>398</ele>
        <time>2022-03-11T06:51:16Z</time>
      </trkpt>
      <trkpt lat="45.48581" lon="4.73155">
        <ele>406</ele>
        <time>2022-03-11T06:52:02Z</time>
      </trkpt>
      <trkpt lat="45.48618" lon="4.73136">
        <ele>409</ele>
        <time>2022-03-11T06:52:22Z</time>
      </trkpt>
      <trkpt lat="45.48616" lon="4.7299">
        <ele>414</ele>
        <time>2022-03-11T06:53:13Z</time>
      </trkpt>
      <trkpt lat="45.4866" lon="4.72907">
        <ele>420</ele>
        <time>2022-03-11T06:53:49Z</time>
      </trkpt>
      <trkpt lat="45.48658" lon="4.72808">
        <ele>423</ele>
        <time>2022-03-11T06:54:24Z</time>
      </trkpt>
      <trkpt lat="45.48671" lon="4.72616">
        <ele>425</ele>
        <time>2022-03-11T06:55:32Z</time>
      </trkpt>
      <trkpt lat="45.48696" lon="4.72553">
        <ele>428</ele>
        <time>2022-03-11T06:55:57Z</time>
      </trkpt>
      <trkpt lat="45.48593" lon="4.72324">
        <ele>443</ele>
        <time>2022-03-11T06:57:33Z</time>
      </trkpt>
      <trkpt lat="45.48755" lon="4.72245">
        <ele>451</ele>
        <time>2022-03-11T06:58:58Z</time>
      </trkpt>
      <trkpt lat="45.48844" lon="4.72158">
        <ele>457</ele>
        <time>2022-03-11T06:59:52Z</time>
      </trkpt>
      <trkpt lat="45.48905" lon="4.72043">
        <ele>467</ele>
        <time>2022-03-11T07:00:43Z</time>
      </trkpt>
      <trkpt lat="45.48964" lon="4.71961">
        <ele>477</ele>
        <time>2022-03-11T07:01:24Z</time>
      </trkpt>
      <trkpt lat="45.49016" lon="4.71933">
        <ele>478</ele>
        <time>2022-03-11T07:01:52Z</time>
      </trkpt>
      <trkpt lat="45.49097" lon="4.71825">
        <ele>494</ele>
        <time>2022-03-11T07:02:48Z</time>
      </trkpt>
      <trkpt lat="45.49138" lon="4.71761">
        <ele>504</ele>
        <time>2022-03-11T07:03:18Z</time>
      </trkpt>
      <trkpt lat="45.4917" lon="4.71687">
        <ele>518</ele>
        <time>2022-03-11T07:03:48Z</time>
      </trkpt>
      <trkpt lat="45.49165" lon="4.71576">
        <ele>536</ele>
        <time>2022-03-11T07:04:27Z</time>
      </trkpt>
      <trkpt lat="45.49184" lon="4.71494">
        <ele>533</ele>
        <time>2022-03-11T07:04:58Z</time>
      </trkpt>
      <trkpt lat="45.49104" lon="4.71517">
        <ele>553</ele>
        <time>2022-03-11T07:05:39Z</time>
      </trkpt>
      <trkpt lat="45.4901" lon="4.71447">
        <ele>584</ele>
        <time>2022-03-11T07:06:32Z</time>
      </trkpt>
      <trkpt lat="45.48974" lon="4.71391">
        <ele>599</ele>
        <time>2022-03-11T07:06:58Z</time>
      </trkpt>
      <trkpt lat="45.48964" lon="4.71325">
        <ele>609</ele>
        <time>2022-03-11T07:07:22Z</time>
      </trkpt>
      <trkpt lat="45.48987" lon="4.71176">
        <ele>611</ele>
        <time>2022-03-11T07:08:16Z</time>
      </trkpt>
      <trkpt lat="45.48923" lon="4.7122">
        <ele>630</ele>
        <time>2022-03-11T07:08:51Z</time>
      </trkpt>
      <trkpt lat="45.48874" lon="4.7122">
        <ele>640</ele>
        <time>2022-03-11T07:09:16Z</time>
      </trkpt>
      <trkpt lat="45.48907" lon="4.71085">
        <ele>643</ele>
        <time>2022-03-11T07:10:06Z</time>
      </trkpt>
      <trkpt lat="45.48885" lon="4.71119">
        <ele>647</ele>
        <time>2022-03-11T07:10:22Z</time>
      </trkpt>
      <trkpt lat="45.4887" lon="4.71104">
        <ele>652</ele>
        <time>2022-03-11T07:10:31Z</time>
      </trkpt>
      <trkpt lat="45.48792" lon="4.71258">
        <ele>652</ele>
        <time>2022-03-11T07:11:38Z</time>
      </trkpt>
      <trkpt lat="45.4875" lon="4.71278">
        <ele>656</ele>
        <time>2022-03-11T07:12:00Z</time>
      </trkpt>
      <trkpt lat="45.48715" lon="4.71208">
        <ele>667</ele>
        <time>2022-03-11T07:12:30Z</time>
      </trkpt>
      <trkpt lat="45.48751" lon="4.70994">
        <ele>695</ele>
        <time>2022-03-11T07:13:47Z</time>
      </trkpt>
      <trkpt lat="45.48732" lon="4.70843">
        <ele>717</ele>
        <time>2022-03-11T07:14:41Z</time>
      </trkpt>
      <trkpt lat="45.48626" lon="4.70809">
        <ele>722</ele>
        <time>2022-03-11T07:15:36Z</time>
      </trkpt>
      <trkpt lat="45.48532" lon="4.70847">
        <ele>737</ele>
        <time>2022-03-11T07:16:24Z</time>
      </trkpt>
      <trkpt lat="45.48404" lon="4.70955">
        <ele>758</ele>
        <time>2022-03-11T07:17:39Z</time>
      </trkpt>
      <trkpt lat="45.48347" lon="4.70961">
        <ele>767</ele>
        <time>2022-03-11T07:18:07Z</time>
      </trkpt>
      <trkpt lat="45.48311" lon="4.70936">
        <ele>772</ele>
        <time>2022-03-11T07:18:28Z</time>
      </trkpt>
      <trkpt lat="45.48209" lon="4.70904">
        <ele>771</ele>
        <time>2022-03-11T07:19:20Z</time>
      </trkpt>
      <trkpt lat="45.48147" lon="4.70829">
        <ele>771</ele>
        <time>2022-03-11T07:20:00Z</time>
      </trkpt>
      <trkpt lat="45.48079" lon="4.7064">
        <ele>751</ele>
        <time>2022-03-11T07:21:15Z</time>
      </trkpt>
      <trkpt lat="45.48052" lon="4.70487">
        <ele>722</ele>
        <time>2022-03-11T07:22:10Z</time>
      </trkpt>
      <trkpt lat="45.47989" lon="4.70337">
        <ele>695</ele>
        <time>2022-03-11T07:23:12Z</time>
      </trkpt>
      <trkpt lat="45.47774" lon="4.69942">
        <ele>645</ele>
        <time>2022-03-11T07:26:07Z</time>
      </trkpt>
      <trkpt lat="45.47742" lon="4.69959">
        <ele>641</ele>
        <time>2022-03-11T07:26:24Z</time>
      </trkpt>
      <trkpt lat="45.47723" lon="4.6982">
        <ele>631</ele>
        <time>2022-03-11T07:27:14Z</time>
      </trkpt>
      <trkpt lat="45.47686" lon="4.69738">
        <ele>625</ele>
        <time>2022-03-11T07:27:48Z</time>
      </trkpt>
      <trkpt lat="45.47632" lon="4.69702">
        <ele>627</ele>
        <time>2022-03-11T07:28:18Z</time>
      </trkpt>
      <trkpt lat="45.47568" lon="4.69574">
        <ele>642</ele>
        <time>2022-03-11T07:29:13Z</time>
      </trkpt>
      <trkpt lat="45.47546" lon="4.69375">
        <ele>662</ele>
        <time>2022-03-11T07:30:24Z</time>
      </trkpt>
      <trkpt lat="45.47529" lon="4.69347">
        <ele>663</ele>
        <time>2022-03-11T07:30:37Z</time>
      </trkpt>
      <trkpt lat="45.47483" lon="4.69346">
        <ele>664</ele>
        <time>2022-03-11T07:31:00Z</time>
      </trkpt>
      <trkpt lat="45.47377" lon="4.69443">
        <ele>684</ele>
        <time>2022-03-11T07:32:03Z</time>
      </trkpt>
      <trkpt lat="45.47365" lon="4.69476">
        <ele>686</ele>
        <time>2022-03-11T07:32:16Z</time>
      </trkpt>
      <trkpt lat="45.4731" lon="4.69489">
        <ele>695</ele>
        <time>2022-03-11T07:32:44Z</time>
      </trkpt>
      <trkpt lat="45.47234" lon="4.69591">
        <ele>712</ele>
        <time>2022-03-11T07:33:36Z</time>
      </trkpt>
      <trkpt lat="45.47187" lon="4.69625">
        <ele>720</ele>
        <time>2022-03-11T07:34:02Z</time>
      </trkpt>
      <trkpt lat="45.47064" lon="4.69538">
        <ele>751</ele>
        <time>2022-03-11T07:35:11Z</time>
      </trkpt>
      <trkpt lat="45.47038" lon="4.69531">
        <ele>753</ele>
        <time>2022-03-11T07:35:24Z</time>
      </trkpt>
      <trkpt lat="45.46965" lon="4.6938">
        <ele>754</ele>
        <time>2022-03-11T07:36:29Z</time>
      </trkpt>
      <trkpt lat="45.46876" lon="4.69228">
        <ele>751</ele>
        <time>2022-03-11T07:37:38Z</time>
      </trkpt>
      <trkpt lat="45.46842" lon="4.69036">
        <ele>747</ele>
        <time>2022-03-11T07:38:48Z</time>
      </trkpt>
      <trkpt lat="45.46772" lon="4.68853">
        <ele>742</ele>
        <time>2022-03-11T07:40:01Z</time>
      </trkpt>
      <trkpt lat="45.46748" lon="4.68652">
        <ele>741</ele>
        <time>2022-03-11T07:41:12Z</time>
      </trkpt>
      <trkpt lat="45.46749" lon="4.68495">
        <ele>752</ele>
        <time>2022-03-11T07:42:08Z</time>
      </trkpt>
      <trkpt lat="45.46714" lon="4.68486">
        <ele>739</ele>
        <time>2022-03-11T07:42:25Z</time>
      </trkpt>
      <trkpt lat="45.46698" lon="4.68434">
        <ele>733</ele>
        <time>2022-03-11T07:42:45Z</time>
      </trkpt>
      <trkpt lat="45.4664" lon="4.68359">
        <ele>708</ele>
        <time>2022-03-11T07:43:24Z</time>
      </trkpt>
      <trkpt lat="45.46602" lon="4.68164">
        <ele>696</ele>
        <time>2022-03-11T07:44:35Z</time>
      </trkpt>
      <trkpt lat="45.46567" lon="4.68069">
        <ele>684</ele>
        <time>2022-03-11T07:45:13Z</time>
      </trkpt>
      <trkpt lat="45.46494" lon="4.67896">
        <ele>661</ele>
        <time>2022-03-11T07:46:24Z</time>
      </trkpt>
      <trkpt lat="45.46453" lon="4.67867">
        <ele>657</ele>
        <time>2022-03-11T07:46:47Z</time>
      </trkpt>
      <trkpt lat="45.4646" lon="4.67821">
        <ele>657</ele>
        <time>2022-03-11T07:47:03Z</time>
      </trkpt>
      <trkpt lat="45.46391" lon="4.67871">
        <ele>660</ele>
        <time>2022-03-11T07:47:42Z</time>
      </trkpt>
      <trkpt lat="45.46218" lon="4.67967">
        <ele>690</ele>
        <time>2022-03-11T07:49:15Z</time>
      </trkpt>
      <trkpt lat="45.4609" lon="4.68114">
        <ele>691</ele>
        <time>2022-03-11T07:50:37Z</time>
      </trkpt>
      <trkpt lat="45.46004" lon="4.68182">
        <ele>686</ele>
        <time>2022-03-11T07:51:27Z</time>
      </trkpt>
      <trkpt lat="45.45798" lon="4.68223">
        <ele>686</ele>
        <time>2022-03-11T07:53:11Z</time>
      </trkpt>
      <trkpt lat="45.45757" lon="4.6819">
        <ele>692</ele>
        <time>2022-03-11T07:53:34Z</time>
      </trkpt>
      <trkpt lat="45.4559" lon="4.68024">
        <ele>712</ele>
        <time>2022-03-11T07:55:16Z</time>
      </trkpt>
      <trkpt lat="45.45496" lon="4.67917">
        <ele>729</ele>
        <time>2022-03-11T07:56:16Z</time>
      </trkpt>
      <trkpt lat="45.45441" lon="4.67868">
        <ele>731</ele>
        <time>2022-03-11T07:56:49Z</time>
      </trkpt>
      <trkpt lat="45.45422" lon="4.67816">
        <ele>740</ele>
        <time>2022-03-11T07:57:09Z</time>
      </trkpt>
      <trkpt lat="45.45464" lon="4.67836">
        <ele>742</ele>
        <time>2022-03-11T07:57:31Z</time>
      </trkpt>
      <trkpt lat="45.45504" lon="4.67813">
        <ele>755</ele>
        <time>2022-03-11T07:57:53Z</time>
      </trkpt>
      <trkpt lat="45.45581" lon="4.67838">
        <ele>764</ele>
        <time>2022-03-11T07:58:33Z</time>
      </trkpt>
      <trkpt lat="45.45489" lon="4.67716">
        <ele>775</ele>
        <time>2022-03-11T07:59:35Z</time>
      </trkpt>
      <trkpt lat="45.456" lon="4.67731">
        <ele>792</ele>
        <time>2022-03-11T08:00:31Z</time>
      </trkpt>
      <trkpt lat="45.45533" lon="4.67616">
        <ele>809</ele>
        <time>2022-03-11T08:01:24Z</time>
      </trkpt>
      <trkpt lat="45.4554" lon="4.67595">
        <ele>816</ele>
        <time>2022-03-11T08:01:32Z</time>
      </trkpt>
      <trkpt lat="45.45679" lon="4.67683">
        <ele>823</ele>
        <time>2022-03-11T08:02:48Z</time>
      </trkpt>
      <trkpt lat="45.45764" lon="4.6772">
        <ele>825</ele>
        <time>2022-03-11T08:03:32Z</time>
      </trkpt>
      <trkpt lat="45.45792" lon="4.67671">
        <ele>830</ele>
        <time>2022-03-11T08:03:55Z</time>
      </trkpt>
      <trkpt lat="45.4576" lon="4.67631">
        <ele>834</ele>
        <time>2022-03-11T08:04:16Z</time>
      </trkpt>
      <trkpt lat="45.45747" lon="4.67597">
        <ele>837</ele>
        <time>2022-03-11T08:04:30Z</time>
      </trkpt>
      <trkpt lat="45.45718" lon="4.67571">
        <ele>840</ele>
        <time>2022-03-11T08:04:47Z</time>
      </trkpt>
      <trkpt lat="45.4569" lon="4.67479">
        <ele>853</ele>
        <time>2022-03-11T08:05:22Z</time>
      </trkpt>
      <trkpt lat="45.45616" lon="4.67339">
        <ele>864</ele>
        <time>2022-03-11T08:06:23Z</time>
      </trkpt>
      <trkpt lat="45.45592" lon="4.67281">
        <ele>869</ele>
        <time>2022-03-11T08:06:47Z</time>
      </trkpt>
      <trkpt lat="45.45534" lon="4.67213">
        <ele>874</ele>
        <time>2022-03-11T08:07:25Z</time>
      </trkpt>
      <trkpt lat="45.45429" lon="4.6714">
        <ele>876</ele>
        <time>2022-03-11T08:08:23Z</time>
      </trkpt>
      <trkpt lat="45.45393" lon="4.67036">
        <ele>875</ele>
        <time>2022-03-11T08:09:04Z</time>
      </trkpt>
      <trkpt lat="45.4539" lon="4.66992">
        <ele>876</ele>
        <time>2022-03-11T08:09:19Z</time>
      </trkpt>
      <trkpt lat="45.45447" lon="4.66941">
        <ele>876</ele>
        <time>2022-03-11T08:09:53Z</time>
      </trkpt>
      <trkpt lat="45.45349" lon="4.66734">
        <ele>877</ele>
        <time>2022-03-11T08:11:21Z</time>
      </trkpt>
      <trkpt lat="45.45271" lon="4.66595">
        <ele>884</ele>
        <time>2022-03-11T08:12:23Z</time>
      </trkpt>
      <trkpt lat="45.45183" lon="4.66544">
        <ele>884</ele>
        <time>2022-03-11T08:13:11Z</time>
      </trkpt>
      <trkpt lat="45.45154" lon="4.66484">
        <ele>880</ele>
        <time>2022-03-11T08:13:36Z</time>
      </trkpt>
      <trkpt lat="45.45082" lon="4.6645">
        <ele>876</ele>
        <time>2022-03-11T08:14:14Z</time>
      </trkpt>
      <trkpt lat="45.45046" lon="4.66393">
        <ele>871</ele>
        <time>2022-03-11T08:14:41Z</time>
      </trkpt>
      <trkpt lat="45.44935" lon="4.66336">
        <ele>871</ele>
        <time>2022-03-11T08:15:40Z</time>
      </trkpt>
      <trkpt lat="45.44917" lon="4.66313">
        <ele>873</ele>
        <time>2022-03-11T08:15:52Z</time>
      </trkpt>
      <trkpt lat="45.44933" lon="4.66178">
        <ele>870</ele>
        <time>2022-03-11T08:16:40Z</time>
      </trkpt>
      <trkpt lat="45.44935" lon="4.66122">
        <ele>867</ele>
        <time>2022-03-11T08:17:00Z</time>
      </trkpt>
      <trkpt lat="45.44959" lon="4.6617">
        <ele>866</ele>
        <time>2022-03-11T08:17:21Z</time>
      </trkpt>
      <trkpt lat="45.4513" lon="4.66077">
        <ele>825</ele>
        <time>2022-03-11T08:18:52Z</time>
      </trkpt>
      <trkpt lat="45.45182" lon="4.66086">
        <ele>816</ele>
        <time>2022-03-11T08:19:19Z</time>
      </trkpt>
      <trkpt lat="45.45196" lon="4.66054">
        <ele>811</ele>
        <time>2022-03-11T08:19:32Z</time>
      </trkpt>
      <trkpt lat="45.45248" lon="4.66028">
        <ele>802</ele>
        <time>2022-03-11T08:19:59Z</time>
      </trkpt>
      <trkpt lat="45.45334" lon="4.65933">
        <ele>781</ele>
        <time>2022-03-11T08:20:54Z</time>
      </trkpt>
      <trkpt lat="45.45396" lon="4.65926">
        <ele>768</ele>
        <time>2022-03-11T08:21:25Z</time>
      </trkpt>
      <trkpt lat="45.45379" lon="4.65879">
        <ele>771</ele>
        <time>2022-03-11T08:21:43Z</time>
      </trkpt>
      <trkpt lat="45.45381" lon="4.65804">
        <ele>772</ele>
        <time>2022-03-11T08:22:10Z</time>
      </trkpt>
      <trkpt lat="45.45419" lon="4.65735">
        <ele>771</ele>
        <time>2022-03-11T08:22:41Z</time>
      </trkpt>
      <trkpt lat="45.45434" lon="4.6568">
        <ele>771</ele>
        <time>2022-03-11T08:23:01Z</time>
      </trkpt>
      <trkpt lat="45.4543" lon="4.65616">
        <ele>771</ele>
        <time>2022-03-11T08:23:24Z</time>
      </trkpt>
      <trkpt lat="45.4542" lon="4.6556">
        <ele>771</ele>
        <time>2022-03-11T08:23:44Z</time>
      </trkpt>
      <trkpt lat="45.45341" lon="4.6556">
        <ele>794</ele>
        <time>2022-03-11T08:24:24Z</time>
      </trkpt>
      <trkpt lat="45.4531" lon="4.65484">
        <ele>806</ele>
        <time>2022-03-11T08:24:55Z</time>
      </trkpt>
      <trkpt lat="45.45287" lon="4.65377">
        <ele>802</ele>
        <time>2022-03-11T08:25:34Z</time>
      </trkpt>
      <trkpt lat="45.44951" lon="4.64818">
        <ele>838</ele>
        <time>2022-03-11T08:29:52Z</time>
      </trkpt>
      <trkpt lat="45.44934" lon="4.64603">
        <ele>860</ele>
        <time>2022-03-11T08:31:08Z</time>
      </trkpt>
      <trkpt lat="45.44864" lon="4.6445">
        <ele>857</ele>
        <time>2022-03-11T08:32:12Z</time>
      </trkpt>
      <trkpt lat="45.44807" lon="4.6421">
        <ele>855</ele>
        <time>2022-03-11T08:33:41Z</time>
      </trkpt>
      <trkpt lat="45.44667" lon="4.63871">
        <ele>816</ele>
        <time>2022-03-11T08:35:59Z</time>
      </trkpt>
      <trkpt lat="45.4456" lon="4.63662">
        <ele>792</ele>
        <time>2022-03-11T08:37:30Z</time>
      </trkpt>
      <trkpt lat="45.44499" lon="4.63364">
        <ele>806</ele>
        <time>2022-03-11T08:39:19Z</time>
      </trkpt>
      <trkpt lat="45.445" lon="4.63322">
        <ele>809</ele>
        <time>2022-03-11T08:39:34Z</time>
      </trkpt>
      <trkpt lat="45.44485" lon="4.63299">
        <ele>810</ele>
        <time>2022-03-11T08:39:45Z</time>
      </trkpt>
      <trkpt lat="45.44483" lon="4.63232">
        <ele>813</ele>
        <time>2022-03-11T08:40:09Z</time>
      </trkpt>
      <trkpt lat="45.44293" lon="4.63237">
        <ele>824</ele>
        <time>2022-03-11T08:41:44Z</time>
      </trkpt>
      <trkpt lat="45.44247" lon="4.63298">
        <ele>823</ele>
        <time>2022-03-11T08:42:15Z</time>
      </trkpt>
      <trkpt lat="45.44132" lon="4.63357">
        <ele>833</ele>
        <time>2022-03-11T08:43:16Z</time>
      </trkpt>
      <trkpt lat="45.44037" lon="4.63435">
        <ele>852</ele>
        <time>2022-03-11T08:44:11Z</time>
      </trkpt>
      <trkpt lat="45.44017" lon="4.63512">
        <ele>856</ele>
        <time>2022-03-11T08:44:40Z</time>
      </trkpt>
      <trkpt lat="45.43909" lon="4.63627">
        <ele>870</ele>
        <time>2022-03-11T08:45:47Z</time>
      </trkpt>
      <trkpt lat="45.43806" lon="4.63657">
        <ele>871</ele>
        <time>2022-03-11T08:46:40Z</time>
      </trkpt>
      <trkpt lat="45.4363" lon="4.6357">
        <ele>879</ele>
        <time>2022-03-11T08:48:13Z</time>
      </trkpt>
      <trkpt lat="45.4356" lon="4.63579">
        <ele>880</ele>
        <time>2022-03-11T08:48:48Z</time>
      </trkpt>
      <trkpt lat="45.43379" lon="4.63615">
        <ele>898</ele>
        <time>2022-03-11T08:50:20Z</time>
      </trkpt>
      <trkpt lat="45.43321" lon="4.63569">
        <ele>917</ele>
        <time>2022-03-11T08:50:53Z</time>
      </trkpt>
      <trkpt lat="45.4319" lon="4.63585">
        <ele>949</ele>
        <time>2022-03-11T08:51:59Z</time>
      </trkpt>
      <trkpt lat="45.43138" lon="4.63607">
        <ele>962</ele>
        <time>2022-03-11T08:52:26Z</time>
      </trkpt>
      <trkpt lat="45.43111" lon="4.63586">
        <ele>972</ele>
        <time>2022-03-11T08:52:41Z</time>
      </trkpt>
      <trkpt lat="45.4312" lon="4.63468">
        <ele>989</ele>
        <time>2022-03-11T08:53:23Z</time>
      </trkpt>
      <trkpt lat="45.4318" lon="4.63404">
        <ele>995</ele>
        <time>2022-03-11T08:54:01Z</time>
      </trkpt>
      <trkpt lat="45.43141" lon="4.63329">
        <ele>1019</ele>
        <time>2022-03-11T08:54:33Z</time>
      </trkpt>
      <trkpt lat="45.43129" lon="4.63239">
        <ele>1034</ele>
        <time>2022-03-11T08:55:06Z</time>
      </trkpt>
      <trkpt lat="45.43098" lon="4.63199">
        <ele>1037</ele>
        <time>2022-03-11T08:55:26Z</time>
      </trkpt>
      <trkpt lat="45.431" lon="4.63191">
        <ele>1038</ele>
        <time>2022-03-11T08:55:29Z</time>
      </trkpt>
      <trkpt lat="45.43076" lon="4.63181">
        <ele>1037</ele>
        <time>2022-03-11T08:55:42Z</time>
      </trkpt>
      <trkpt lat="45.43052" lon="4.63179">
        <ele>1030</ele>
        <time>2022-03-11T08:55:54Z</time>
      </trkpt>
      <trkpt lat="45.42998" lon="4.63154">
        <ele>1016</ele>
        <time>2022-03-11T08:56:22Z</time>
      </trkpt>
      <trkpt lat="45.4296" lon="4.63169">
        <ele>998</ele>
        <time>2022-03-11T08:56:42Z</time>
      </trkpt>
      <trkpt lat="45.42918" lon="4.63076">
        <ele>990</ele>
        <time>2022-03-11T08:57:21Z</time>
      </trkpt>
      <trkpt lat="45.42834" lon="4.62954">
        <ele>958</ele>
        <time>2022-03-11T08:58:21Z</time>
      </trkpt>
      <trkpt lat="45.42747" lon="4.62688">
        <ele>924</ele>
        <time>2022-03-11T09:00:04Z</time>
      </trkpt>
      <trkpt lat="45.42737" lon="4.62645">
        <ele>922</ele>
        <time>2022-03-11T09:00:20Z</time>
      </trkpt>
      <trkpt lat="45.427" lon="4.6258">
        <ele>914</ele>
        <time>2022-03-11T09:00:49Z</time>
      </trkpt>
      <trkpt lat="45.42694" lon="4.62686">
        <ele>905</ele>
        <time>2022-03-11T09:01:27Z</time>
      </trkpt>
      <trkpt lat="45.4268" lon="4.62852">
        <ele>899</ele>
        <time>2022-03-11T09:02:25Z</time>
      </trkpt>
      <trkpt lat="45.42687" lon="4.62946">
        <ele>897</ele>
        <time>2022-03-11T09:02:59Z</time>
      </trkpt>
      <trkpt lat="45.42702" lon="4.63051">
        <ele>892</ele>
        <time>2022-03-11T09:03:36Z</time>
      </trkpt>
      <trkpt lat="45.42636" lon="4.63003">
        <ele>872</ele>
        <time>2022-03-11T09:04:13Z</time>
      </trkpt>
      <trkpt lat="45.4256" lon="4.62912">
        <ele>851</ele>
        <time>2022-03-11T09:05:03Z</time>
      </trkpt>
      <trkpt lat="45.42518" lon="4.62705">
        <ele>847</ele>
        <time>2022-03-11T09:06:19Z</time>
      </trkpt>
      <trkpt lat="45.42479" lon="4.62492">
        <ele>850</ele>
        <time>2022-03-11T09:07:36Z</time>
      </trkpt>
      <trkpt lat="45.42428" lon="4.62426">
        <ele>845</ele>
        <time>2022-03-11T09:08:11Z</time>
      </trkpt>
      <trkpt lat="45.42353" lon="4.62383">
        <ele>842</ele>
        <time>2022-03-11T09:08:51Z</time>
      </trkpt>
      <trkpt lat="45.4223" lon="4.62323">
        <ele>875</ele>
        <time>2022-03-11T09:09:56Z</time>
      </trkpt>
      <trkpt lat="45.42142" lon="4.62385">
        <ele>890</ele>
        <time>2022-03-11T09:10:45Z</time>
      </trkpt>
      <trkpt lat="45.42086" lon="4.62395">
        <ele>903</ele>
        <time>2022-03-11T09:11:13Z</time>
      </trkpt>
      <trkpt lat="45.42014" lon="4.62424">
        <ele>909</ele>
        <time>2022-03-11T09:11:51Z</time>
      </trkpt>
      <trkpt lat="45.41983" lon="4.62428">
        <ele>911</ele>
        <time>2022-03-11T09:12:06Z</time>
      </trkpt>
      <trkpt lat="45.41926" lon="4.62379">
        <ele>926</ele>
        <time>2022-03-11T09:12:40Z</time>
      </trkpt>
      <trkpt lat="45.41869" lon="4.62364">
        <ele>933</ele>
        <time>2022-03-11T09:13:09Z</time>
      </trkpt>
      <trkpt lat="45.41809" lon="4.62378">
        <ele>934</ele>
        <time>2022-03-11T09:13:39Z</time>
      </trkpt>
      <trkpt lat="45.41755" lon="4.62412">
        <ele>936</ele>
        <time>2022-03-11T09:14:09Z</time>
      </trkpt>
      <trkpt lat="45.41716" lon="4.62441">
        <ele>943</ele>
        <time>2022-03-11T09:14:31Z</time>
      </trkpt>
      <trkpt lat="45.41675" lon="4.62458">
        <ele>952</ele>
        <time>2022-03-11T09:14:52Z</time>
      </trkpt>
      <trkpt lat="45.41653" lon="4.62508">
        <ele>956</ele>
        <time>2022-03-11T09:15:13Z</time>
      </trkpt>
      <trkpt lat="45.41655" lon="4.62568">
        <ele>954</ele>
        <time>2022-03-11T09:15:34Z</time>
      </trkpt>
      <trkpt lat="45.4167" lon="4.62653">
        <ele>950</ele>
        <time>2022-03-11T09:16:05Z</time>
      </trkpt>
      <trkpt lat="45.41667" lon="4.62753">
        <ele>948</ele>
        <time>2022-03-11T09:16:40Z</time>
      </trkpt>
      <trkpt lat="45.41636" lon="4.62837">
        <ele>954</ele>
        <time>2022-03-11T09:17:13Z</time>
      </trkpt>
      <trkpt lat="45.41616" lon="4.62826">
        <ele>961</ele>
        <time>2022-03-11T09:17:24Z</time>
      </trkpt>
      <trkpt lat="45.41595" lon="4.62747">
        <ele>982</ele>
        <time>2022-03-11T09:17:54Z</time>
      </trkpt>
      <trkpt lat="45.41552" lon="4.62735">
        <ele>992</ele>
        <time>2022-03-11T09:18:16Z</time>
      </trkpt>
      <trkpt lat="45.415" lon="4.62729">
        <ele>1002</ele>
        <time>2022-03-11T09:18:42Z</time>
      </trkpt>
      <trkpt lat="45.41437" lon="4.62756">
        <ele>1004</ele>
        <time>2022-03-11T09:19:15Z</time>
      </trkpt>
      <trkpt lat="45.414" lon="4.62751">
        <ele>1005</ele>
        <time>2022-03-11T09:19:33Z</time>
      </trkpt>
      <trkpt lat="45.41325" lon="4.62655">
        <ele>1020</ele>
        <time>2022-03-11T09:20:24Z</time>
      </trkpt>
      <trkpt lat="45.41272" lon="4.62612">
        <ele>1018</ele>
        <time>2022-03-11T09:20:54Z</time>
      </trkpt>
      <trkpt lat="45.41213" lon="4.62507">
        <ele>1028</ele>
        <time>2022-03-11T09:21:41Z</time>
      </trkpt>
      <trkpt lat="45.4115" lon="4.62442">
        <ele>1028</ele>
        <time>2022-03-11T09:22:20Z</time>
      </trkpt>
      <trkpt lat="45.41098" lon="4.62362">
        <ele>1032</ele>
        <time>2022-03-11T09:22:59Z</time>
      </trkpt>
      <trkpt lat="45.41062" lon="4.62296">
        <ele>1037</ele>
        <time>2022-03-11T09:23:28Z</time>
      </trkpt>
      <trkpt lat="45.41006" lon="4.62234">
        <ele>1038</ele>
        <time>2022-03-11T09:24:03Z</time>
      </trkpt>
      <trkpt lat="45.40958" lon="4.62194">
        <ele>1042</ele>
        <time>2022-03-11T09:24:31Z</time>
      </trkpt>
      <trkpt lat="45.40865" lon="4.62165">
        <ele>1036</ele>
        <time>2022-03-11T09:25:19Z</time>
      </trkpt>
      <trkpt lat="45.40714" lon="4.62164">
        <ele>1028</ele>
        <time>2022-03-11T09:26:35Z</time>
      </trkpt>
      <trkpt lat="45.40602" lon="4.62224">
        <ele>1014</ele>
        <time>2022-03-11T09:27:34Z</time>
      </trkpt>
      <trkpt lat="45.40485" lon="4.62262">
        <ele>1009</ele>
        <time>2022-03-11T09:28:34Z</time>
      </trkpt>
      <trkpt lat="45.40464" lon="4.62327">
        <ele>1004</ele>
        <time>2022-03-11T09:29:00Z</time>
      </trkpt>
      <trkpt lat="45.40436" lon="4.62466">
        <ele>1007</ele>
        <time>2022-03-11T09:29:50Z</time>
      </trkpt>
      <trkpt lat="45.40408" lon="4.62577">
        <ele>1008</ele>
        <time>2022-03-11T09:30:32Z</time>
      </trkpt>
      <trkpt lat="45.40385" lon="4.62608">
        <ele>1005</ele>
        <time>2022-03-11T09:30:48Z</time>
      </trkpt>
      <trkpt lat="45.40333" lon="4.62619">
        <ele>1006</ele>
        <time>2022-03-11T09:31:14Z</time>
      </trkpt>
      <trkpt lat="45.40285" lon="4.62619">
        <ele>1000</ele>
        <time>2022-03-11T09:31:38Z</time>
      </trkpt>
      <trkpt lat="45.40241" lon="4.62603">
        <ele>999</ele>
        <time>2022-03-11T09:32:01Z</time>
      </trkpt>
      <trkpt lat="45.40127" lon="4.62536">
        <ele>995</ele>
        <time>2022-03-11T09:33:02Z</time>
      </trkpt>
      <trkpt lat="45.3983" lon="4.62337">
        <ele>1001</ele>
        <time>2022-03-11T09:35:47Z</time>
      </trkpt>
      <trkpt lat="45.39725" lon="4.62239">
        <ele>998</ele>
        <time>2022-03-11T09:36:50Z</time>
      </trkpt>
      <trkpt lat="45.39673" lon="4.62092">
        <ele>1024</ele>
        <time>2022-03-11T09:37:47Z</time>
      </trkpt>
      <trkpt lat="45.39518" lon="4.62029">
        <ele>1026</ele>
        <time>2022-03-11T09:39:08Z</time>
      </trkpt>
      <trkpt lat="45.39475" lon="4.62068">
        <ele>1016</ele>
        <time>2022-03-11T09:39:34Z</time>
      </trkpt>
      <trkpt lat="45.39515" lon="4.61997">
        <ele>1038</ele>
        <time>2022-03-11T09:40:06Z</time>
      </trkpt>
      <trkpt lat="45.39539" lon="4.61976">
        <ele>1049</ele>
        <time>2022-03-11T09:40:20Z</time>
      </trkpt>
      <trkpt lat="45.39545" lon="4.6192">
        <ele>1076</ele>
        <time>2022-03-11T09:40:40Z</time>
      </trkpt>
      <trkpt lat="45.39467" lon="4.6192">
        <ele>1078</ele>
        <time>2022-03-11T09:41:19Z</time>
      </trkpt>
      <trkpt lat="45.39379" lon="4.61955">
        <ele>1074</ele>
        <time>2022-03-11T09:42:04Z</time>
      </trkpt>
      <trkpt lat="45.39312" lon="4.61953">
        <ele>1081</ele>
        <time>2022-03-11T09:42:38Z</time>
      </trkpt>
      <trkpt lat="45.39172" lon="4.61924">
        <ele>1096</ele>
        <time>2022-03-11T09:43:49Z</time>
      </trkpt>
      <trkpt lat="45.39191" lon="4.61874">
        <ele>1113</ele>
        <time>2022-03-11T09:44:09Z</time>
      </trkpt>
      <trkpt lat="45.39305" lon="4.61826">
        <ele>1130</ele>
        <time>2022-03-11T09:45:08Z</time>
      </trkpt>
      <trkpt lat="45.39338" lon="4.61752">
        <ele>1161</ele>
        <time>2022-03-11T09:45:39Z</time>
      </trkpt>
      <trkpt lat="45.3934" lon="4.61697">
        <ele>1183</ele>
        <time>2022-03-11T09:45:58Z</time>
      </trkpt>
      <trkpt lat="45.39307" lon="4.61701">
        <ele>1182</ele>
        <time>2022-03-11T09:46:15Z</time>
      </trkpt>
      <trkpt lat="45.39154" lon="4.61695">
        <ele>1182</ele>
        <time>2022-03-11T09:47:31Z</time>
      </trkpt>
      <trkpt lat="45.38999" lon="4.61724">
        <ele>1189</ele>
        <time>2022-03-11T09:48:50Z</time>
      </trkpt>
      <trkpt lat="45.38947" lon="4.61782">
        <ele>1193</ele>
        <time>2022-03-11T09:49:23Z</time>
      </trkpt>
      <trkpt lat="45.38929" lon="4.61916">
        <ele>1186</ele>
        <time>2022-03-11T09:50:11Z</time>
      </trkpt>
      <trkpt lat="45.38934" lon="4.61977">
        <ele>1180</ele>
        <time>2022-03-11T09:50:32Z</time>
      </trkpt>
      <trkpt lat="45.38921" lon="4.62018">
        <ele>1182</ele>
        <time>2022-03-11T09:50:48Z</time>
      </trkpt>
      <trkpt lat="45.38896" lon="4.62058">
        <ele>1180</ele>
        <time>2022-03-11T09:51:07Z</time>
      </trkpt>
      <trkpt lat="45.38905" lon="4.62085">
        <ele>1176</ele>
        <time>2022-03-11T09:51:17Z</time>
      </trkpt>
      <trkpt lat="45.38901" lon="4.62129">
        <ele>1169</ele>
        <time>2022-03-11T09:51:33Z</time>
      </trkpt>
      <trkpt lat="45.38927" lon="4.62246">
        <ele>1156</ele>
        <time>2022-03-11T09:52:16Z</time>
      </trkpt>
      <trkpt lat="45.38928" lon="4.62331">
        <ele>1161</ele>
        <time>2022-03-11T09:52:46Z</time>
      </trkpt>
      <trkpt lat="45.38907" lon="4.62377">
        <ele>1165</ele>
        <time>2022-03-11T09:53:05Z</time>
      </trkpt>
      <trkpt lat="45.38906" lon="4.62416">
        <ele>1168</ele>
        <time>2022-03-11T09:53:19Z</time>
      </trkpt>
      <trkpt lat="45.38898" lon="4.62472">
        <ele>1169</ele>
        <time>2022-03-11T09:53:39Z</time>
      </trkpt>
      <trkpt lat="45.38912" lon="4.62543">
        <ele>1177</ele>
        <time>2022-03-11T09:54:05Z</time>
      </trkpt>
      <trkpt lat="45.38881" lon="4.62616">
        <ele>1175</ele>
        <time>2022-03-11T09:54:35Z</time>
      </trkpt>
      <trkpt lat="45.38842" lon="4.62688">
        <ele>1178</ele>
        <time>2022-03-11T09:55:07Z</time>
      </trkpt>
      <trkpt lat="45.38814" lon="4.62804">
        <ele>1182</ele>
        <time>2022-03-11T09:55:50Z</time>
      </trkpt>
      <trkpt lat="45.38824" lon="4.62863">
        <ele>1181</ele>
        <time>2022-03-11T09:56:11Z</time>
      </trkpt>
      <trkpt lat="45.38841" lon="4.62849">
        <ele>1182</ele>
        <time>2022-03-11T09:56:21Z</time>
      </trkpt>
      <trkpt lat="45.3885" lon="4.62881">
        <ele>1176</ele>
        <time>2022-03-11T09:56:33Z</time>
      </trkpt>
      <trkpt lat="45.38829" lon="4.62937">
        <ele>1174</ele>
        <time>2022-03-11T09:56:56Z</time>
      </trkpt>
      <trkpt lat="45.3883" lon="4.63053">
        <ele>1160</ele>
        <time>2022-03-11T09:57:36Z</time>
      </trkpt>
      <trkpt lat="45.38824" lon="4.63077">
        <ele>1155</ele>
        <time>2022-03-11T09:57:45Z</time>
      </trkpt>
      <trkpt lat="45.38857" lon="4.63156">
        <ele>1140</ele>
        <time>2022-03-11T09:58:18Z</time>
      </trkpt>
      <trkpt lat="45.38901" lon="4.63209">
        <ele>1122</ele>
        <time>2022-03-11T09:58:46Z</time>
      </trkpt>
      <trkpt lat="45.38921" lon="4.63267">
        <ele>1108</ele>
        <time>2022-03-11T09:59:09Z</time>
      </trkpt>
      <trkpt lat="45.38945" lon="4.63317">
        <ele>1089</ele>
        <time>2022-03-11T09:59:30Z</time>
      </trkpt>
      <trkpt lat="45.38975" lon="4.63347">
        <ele>1075</ele>
        <time>2022-03-11T09:59:49Z</time>
      </trkpt>
      <trkpt lat="45.38993" lon="4.6333">
        <ele>1072</ele>
        <time>2022-03-11T10:00:00Z</time>
      </trkpt>
      <trkpt lat="45.39003" lon="4.63306">
        <ele>1072</ele>
        <time>2022-03-11T10:00:09Z</time>
      </trkpt>
      <trkpt lat="45.39027" lon="4.6328">
        <ele>1063</ele>
        <time>2022-03-11T10:00:25Z</time>
      </trkpt>
      <trkpt lat="45.3906" lon="4.63274">
        <ele>1048</ele>
        <time>2022-03-11T10:00:41Z</time>
      </trkpt>
      <trkpt lat="45.39067" lon="4.63359">
        <ele>1036</ele>
        <time>2022-03-11T10:01:11Z</time>
      </trkpt>
      <trkpt lat="45.391" lon="4.6347">
        <ele>1015</ele>
        <time>2022-03-11T10:01:54Z</time>
      </trkpt>
      <trkpt lat="45.39114" lon="4.6364">
        <ele>995</ele>
        <time>2022-03-11T10:02:54Z</time>
      </trkpt>
      <trkpt lat="45.39168" lon="4.63674">
        <ele>983</ele>
        <time>2022-03-11T10:03:23Z</time>
      </trkpt>
      <trkpt lat="45.39223" lon="4.63677">
        <ele>979</ele>
        <time>2022-03-11T10:03:51Z</time>
      </trkpt>
      <trkpt lat="45.39345" lon="4.63764">
        <ele>971</ele>
        <time>2022-03-11T10:04:59Z</time>
      </trkpt>
      <trkpt lat="45.39386" lon="4.63883">
        <ele>977</ele>
        <time>2022-03-11T10:05:46Z</time>
      </trkpt>
      <trkpt lat="45.39415" lon="4.63923">
        <ele>982</ele>
        <time>2022-03-11T10:06:06Z</time>
      </trkpt>
      <trkpt lat="45.39442" lon="4.63935">
        <ele>979</ele>
        <time>2022-03-11T10:06:20Z</time>
      </trkpt>
      <trkpt lat="45.39483" lon="4.63921">
        <ele>979</ele>
        <time>2022-03-11T10:06:41Z</time>
      </trkpt>
      <trkpt lat="45.39465" lon="4.6395">
        <ele>976</ele>
        <time>2022-03-11T10:06:55Z</time>
      </trkpt>
      <trkpt lat="45.39501" lon="4.63963">
        <ele>973</ele>
        <time>2022-03-11T10:07:13Z</time>
      </trkpt>
      <trkpt lat="45.39524" lon="4.64034">
        <ele>957</ele>
        <time>2022-03-11T10:07:41Z</time>
      </trkpt>
      <trkpt lat="45.39511" lon="4.64066">
        <ele>956</ele>
        <time>2022-03-11T10:07:54Z</time>
      </trkpt>
      <trkpt lat="45.39482" lon="4.64039">
        <ele>963</ele>
        <time>2022-03-11T10:08:11Z</time>
      </trkpt>
      <trkpt lat="45.39429" lon="4.64013">
        <ele>970</ele>
        <time>2022-03-11T10:08:39Z</time>
      </trkpt>
      <trkpt lat="45.39387" lon="4.63978">
        <ele>971</ele>
        <time>2022-03-11T10:09:04Z</time>
      </trkpt>
      <trkpt lat="45.39362" lon="4.63948">
        <ele>969</ele>
        <time>2022-03-11T10:09:20Z</time>
      </trkpt>
      <trkpt lat="45.39336" lon="4.6387">
        <ele>970</ele>
        <time>2022-03-11T10:09:50Z</time>
      </trkpt>
      <trkpt lat="45.39304" lon="4.63834">
        <ele>968</ele>
        <time>2022-03-11T10:10:11Z</time>
      </trkpt>
      <trkpt lat="45.39246" lon="4.63807">
        <ele>965</ele>
        <time>2022-03-11T10:10:41Z</time>
      </trkpt>
      <trkpt lat="45.39201" lon="4.63802">
        <ele>965</ele>
        <time>2022-03-11T10:11:04Z</time>
      </trkpt>
      <trkpt lat="45.39086" lon="4.63847">
        <ele>961</ele>
        <time>2022-03-11T10:12:03Z</time>
      </trkpt>
      <trkpt lat="45.38998" lon="4.63871">
        <ele>968</ele>
        <time>2022-03-11T10:12:48Z</time>
      </trkpt>
      <trkpt lat="45.3894" lon="4.63867">
        <ele>969</ele>
        <time>2022-03-11T10:13:17Z</time>
      </trkpt>
      <trkpt lat="45.38871" lon="4.63831">
        <ele>974</ele>
        <time>2022-03-11T10:13:54Z</time>
      </trkpt>
      <trkpt lat="45.38814" lon="4.6378">
        <ele>982</ele>
        <time>2022-03-11T10:14:28Z</time>
      </trkpt>
      <trkpt lat="45.38777" lon="4.63714">
        <ele>993</ele>
        <time>2022-03-11T10:14:58Z</time>
      </trkpt>
      <trkpt lat="45.38737" lon="4.63691">
        <ele>994</ele>
        <time>2022-03-11T10:15:19Z</time>
      </trkpt>
      <trkpt lat="45.38726" lon="4.63653">
        <ele>1002</ele>
        <time>2022-03-11T10:15:34Z</time>
      </trkpt>
      <trkpt lat="45.38666" lon="4.6366">
        <ele>997</ele>
        <time>2022-03-11T10:16:04Z</time>
      </trkpt>
      <trkpt lat="45.38603" lon="4.63629">
        <ele>1006</ele>
        <time>2022-03-11T10:16:37Z</time>
      </trkpt>
      <trkpt lat="45.3853" lon="4.63659">
        <ele>998</ele>
        <time>2022-03-11T10:17:15Z</time>
      </trkpt>
      <trkpt lat="45.38481" lon="4.63662">
        <ele>992</ele>
        <time>2022-03-11T10:17:40Z</time>
      </trkpt>
      <trkpt lat="45.38429" lon="4.63662">
        <ele>979</ele>
        <time>2022-03-11T10:18:06Z</time>
      </trkpt>
      <trkpt lat="45.38398" lon="4.63653">
        <ele>972</ele>
        <time>2022-03-11T10:18:21Z</time>
      </trkpt>
      <trkpt lat="45.38354" lon="4.63627">
        <ele>965</ele>
        <time>2022-03-11T10:18:45Z</time>
      </trkpt>
      <trkpt lat="45.38295" lon="4.63646">
        <ele>945</ele>
        <time>2022-03-11T10:19:16Z</time>
      </trkpt>
      <trkpt lat="45.38216" lon="4.63637">
        <ele>928</ele>
        <time>2022-03-11T10:19:55Z</time>
      </trkpt>
      <trkpt lat="45.38161" lon="4.6364">
        <ele>920</ele>
        <time>2022-03-11T10:20:23Z</time>
      </trkpt>
      <trkpt lat="45.38136" lon="4.63681">
        <ele>911</ele>
        <time>2022-03-11T10:20:42Z</time>
      </trkpt>
      <trkpt lat="45.38067" lon="4.63735">
        <ele>901</ele>
        <time>2022-03-11T10:21:21Z</time>
      </trkpt>
      <trkpt lat="45.38022" lon="4.63756">
        <ele>898</ele>
        <time>2022-03-11T10:21:45Z</time>
      </trkpt>
      <trkpt lat="45.37977" lon="4.63782">
        <ele>891</ele>
        <time>2022-03-11T10:22:09Z</time>
      </trkpt>
      <trkpt lat="45.37926" lon="4.63789">
        <ele>886</ele>
        <time>2022-03-11T10:22:35Z</time>
      </trkpt>
      <trkpt lat="45.3788" lon="4.63853">
        <ele>863</ele>
        <time>2022-03-11T10:23:07Z</time>
      </trkpt>
      <trkpt lat="45.37838" lon="4.6386">
        <ele>854</ele>
        <time>2022-03-11T10:23:28Z</time>
      </trkpt>
      <trkpt lat="45.37784" lon="4.63891">
        <ele>834</ele>
        <time>2022-03-11T10:23:57Z</time>
      </trkpt>
      <trkpt lat="45.37749" lon="4.63967">
        <ele>817</ele>
        <time>2022-03-11T10:24:29Z</time>
      </trkpt>
      <trkpt lat="45.37709" lon="4.64025">
        <ele>806</ele>
        <time>2022-03-11T10:24:58Z</time>
      </trkpt>
      <trkpt lat="45.3768" lon="4.64079">
        <ele>802</ele>
        <time>2022-03-11T10:25:22Z</time>
      </trkpt>
      <trkpt lat="45.37633" lon="4.64145">
        <ele>793</ele>
        <time>2022-03-11T10:25:55Z</time>
      </trkpt>
      <trkpt lat="45.37599" lon="4.64176">
        <ele>786</ele>
        <time>2022-03-11T10:26:15Z</time>
      </trkpt>
      <trkpt lat="45.37546" lon="4.64234">
        <ele>779</ele>
        <time>2022-03-11T10:26:48Z</time>
      </trkpt>
      <trkpt lat="45.37499" lon="4.6428">
        <ele>772</ele>
        <time>2022-03-11T10:27:17Z</time>
      </trkpt>
      <trkpt lat="45.37469" lon="4.64322">
        <ele>767</ele>
        <time>2022-03-11T10:27:38Z</time>
      </trkpt>
      <trkpt lat="45.37443" lon="4.64392">
        <ele>764</ele>
        <time>2022-03-11T10:28:06Z</time>
      </trkpt>
      <trkpt lat="45.37387" lon="4.64466">
        <ele>751</ele>
        <time>2022-03-11T10:28:44Z</time>
      </trkpt>
      <trkpt lat="45.37351" lon="4.64532">
        <ele>747</ele>
        <time>2022-03-11T10:29:14Z</time>
      </trkpt>
      <trkpt lat="45.37299" lon="4.64679">
        <ele>742</ele>
        <time>2022-03-11T10:30:11Z</time>
      </trkpt>
      <trkpt lat="45.37255" lon="4.64681">
        <ele>731</ele>
        <time>2022-03-11T10:30:33Z</time>
      </trkpt>
      <trkpt lat="45.37222" lon="4.64577">
        <ele>717</ele>
        <time>2022-03-11T10:31:14Z</time>
      </trkpt>
      <trkpt lat="45.37188" lon="4.64739">
        <ele>710</ele>
        <time>2022-03-11T10:32:13Z</time>
      </trkpt>
      <trkpt lat="45.37225" lon="4.64832">
        <ele>713</ele>
        <time>2022-03-11T10:32:51Z</time>
      </trkpt>
      <trkpt lat="45.37264" lon="4.64919">
        <ele>718</ele>
        <time>2022-03-11T10:33:27Z</time>
      </trkpt>
      <trkpt lat="45.37278" lon="4.65256">
        <ele>714</ele>
        <time>2022-03-11T10:35:25Z</time>
      </trkpt>
      <trkpt lat="45.37249" lon="4.65355">
        <ele>695</ele>
        <time>2022-03-11T10:36:03Z</time>
      </trkpt>
      <trkpt lat="45.37197" lon="4.65315">
        <ele>687</ele>
        <time>2022-03-11T10:36:33Z</time>
      </trkpt>
      <trkpt lat="45.37207" lon="4.65382">
        <ele>680</ele>
        <time>2022-03-11T10:36:57Z</time>
      </trkpt>
      <trkpt lat="45.37251" lon="4.65505">
        <ele>668</ele>
        <time>2022-03-11T10:37:45Z</time>
      </trkpt>
      <trkpt lat="45.37252" lon="4.656">
        <ele>656</ele>
        <time>2022-03-11T10:38:19Z</time>
      </trkpt>
      <trkpt lat="45.37198" lon="4.65685">
        <ele>641</ele>
        <time>2022-03-11T10:38:59Z</time>
      </trkpt>
      <trkpt lat="45.37183" lon="4.65747">
        <ele>640</ele>
        <time>2022-03-11T10:39:22Z</time>
      </trkpt>
      <trkpt lat="45.3712" lon="4.65779">
        <ele>629</ele>
        <time>2022-03-11T10:39:56Z</time>
      </trkpt>
      <trkpt lat="45.37113" lon="4.65829">
        <ele>631</ele>
        <time>2022-03-11T10:40:14Z</time>
      </trkpt>
      <trkpt lat="45.3714" lon="4.659">
        <ele>642</ele>
        <time>2022-03-11T10:40:42Z</time>
      </trkpt>
      <trkpt lat="45.371" lon="4.66043">
        <ele>631</ele>
        <time>2022-03-11T10:41:36Z</time>
      </trkpt>
      <trkpt lat="45.37075" lon="4.66119">
        <ele>621</ele>
        <time>2022-03-11T10:42:06Z</time>
      </trkpt>
      <trkpt lat="45.37065" lon="4.66182">
        <ele>616</ele>
        <time>2022-03-11T10:42:28Z</time>
      </trkpt>
      <trkpt lat="45.37065" lon="4.66262">
        <ele>610</ele>
        <time>2022-03-11T10:42:56Z</time>
      </trkpt>
      <trkpt lat="45.37001" lon="4.66251">
        <ele>594</ele>
        <time>2022-03-11T10:43:29Z</time>
      </trkpt>
      <trkpt lat="45.36985" lon="4.663">
        <ele>586</ele>
        <time>2022-03-11T10:43:48Z</time>
      </trkpt>
      <trkpt lat="45.36944" lon="4.66281">
        <ele>580</ele>
        <time>2022-03-11T10:44:09Z</time>
      </trkpt>
      <trkpt lat="45.3693" lon="4.66187">
        <ele>580</ele>
        <time>2022-03-11T10:44:43Z</time>
      </trkpt>
      <trkpt lat="45.36936" lon="4.66129">
        <ele>583</ele>
        <time>2022-03-11T10:45:04Z</time>
      </trkpt>
      <trkpt lat="45.36929" lon="4.66099">
        <ele>581</ele>
        <time>2022-03-11T10:45:15Z</time>
      </trkpt>
      <trkpt lat="45.36895" lon="4.66127">
        <ele>575</ele>
        <time>2022-03-11T10:45:34Z</time>
      </trkpt>
      <trkpt lat="45.3682" lon="4.66131">
        <ele>565</ele>
        <time>2022-03-11T10:46:12Z</time>
      </trkpt>
      <trkpt lat="45.36819" lon="4.6609">
        <ele>564</ele>
        <time>2022-03-11T10:46:26Z</time>
      </trkpt>
      <trkpt lat="45.36829" lon="4.65934">
        <ele>567</ele>
        <time>2022-03-11T10:47:21Z</time>
      </trkpt>
      <trkpt lat="45.3685" lon="4.65921">
        <ele>570</ele>
        <time>2022-03-11T10:47:33Z</time>
      </trkpt>
      <trkpt lat="45.3686" lon="4.659">
        <ele>572</ele>
        <time>2022-03-11T10:47:42Z</time>
      </trkpt>
      <trkpt lat="45.36894" lon="4.65769">
        <ele>578</ele>
        <time>2022-03-11T10:48:31Z</time>
      </trkpt>
      <trkpt lat="45.36907" lon="4.65512">
        <ele>593</ele>
        <time>2022-03-11T10:50:01Z</time>
      </trkpt>
      <trkpt lat="45.3692" lon="4.65382">
        <ele>604</ele>
        <time>2022-03-11T10:50:48Z</time>
      </trkpt>
      <trkpt lat="45.36907" lon="4.65319">
        <ele>607</ele>
        <time>2022-03-11T10:51:11Z</time>
      </trkpt>
      <trkpt lat="45.36897" lon="4.65234">
        <ele>611</ele>
        <time>2022-03-11T10:51:41Z</time>
      </trkpt>
      <trkpt lat="45.36947" lon="4.64976">
        <ele>629</ele>
        <time>2022-03-11T10:53:15Z</time>
      </trkpt>
      <trkpt lat="45.36901" lon="4.64977">
        <ele>621</ele>
        <time>2022-03-11T10:53:38Z</time>
      </trkpt>
      <trkpt lat="45.36843" lon="4.64867">
        <ele>619</ele>
        <time>2022-03-11T10:54:26Z</time>
      </trkpt>
      <trkpt lat="45.36701" lon="4.64731">
        <ele>626</ele>
        <time>2022-03-11T10:55:52Z</time>
      </trkpt>
      <trkpt lat="45.36703" lon="4.6464">
        <ele>641</ele>
        <time>2022-03-11T10:56:24Z</time>
      </trkpt>
      <trkpt lat="45.36717" lon="4.64602">
        <ele>646</ele>
        <time>2022-03-11T10:56:39Z</time>
      </trkpt>
      <trkpt lat="45.3671" lon="4.64549">
        <ele>658</ele>
        <time>2022-03-11T10:56:58Z</time>
      </trkpt>
      <trkpt lat="45.36606" lon="4.64524">
        <ele>668</ele>
        <time>2022-03-11T10:57:51Z</time>
      </trkpt>
      <trkpt lat="45.36601" lon="4.64491">
        <ele>673</ele>
        <time>2022-03-11T10:58:03Z</time>
      </trkpt>
      <trkpt lat="45.3661" lon="4.64402">
        <ele>686</ele>
        <time>2022-03-11T10:58:34Z</time>
      </trkpt>
      <trkpt lat="45.36616" lon="4.64306">
        <ele>696</ele>
        <time>2022-03-11T10:59:08Z</time>
      </trkpt>
      <trkpt lat="45.36647" lon="4.64245">
        <ele>710</ele>
        <time>2022-03-11T10:59:35Z</time>
      </trkpt>
      <trkpt lat="45.36652" lon="4.64094">
        <ele>726</ele>
        <time>2022-03-11T11:00:28Z</time>
      </trkpt>
      <trkpt lat="45.36664" lon="4.63902">
        <ele>736</ele>
        <time>2022-03-11T11:01:36Z</time>
      </trkpt>
      <trkpt lat="45.36696" lon="4.63781">
        <ele>740</ele>
        <time>2022-03-11T11:02:21Z</time>
      </trkpt>
      <trkpt lat="45.36747" lon="4.63655">
        <ele>744</ele>
        <time>2022-03-11T11:03:12Z</time>
      </trkpt>
      <trkpt lat="45.36777" lon="4.63647">
        <ele>753</ele>
        <time>2022-03-11T11:03:28Z</time>
      </trkpt>
      <trkpt lat="45.3685" lon="4.63561">
        <ele>761</ele>
        <time>2022-03-11T11:04:15Z</time>
      </trkpt>
      <trkpt lat="45.36899" lon="4.63525">
        <ele>768</ele>
        <time>2022-03-11T11:04:43Z</time>
      </trkpt>
      <trkpt lat="45.36955" lon="4.63429">
        <ele>781</ele>
        <time>2022-03-11T11:05:26Z</time>
      </trkpt>
      <trkpt lat="45.36994" lon="4.63331">
        <ele>800</ele>
        <time>2022-03-11T11:06:06Z</time>
      </trkpt>
      <trkpt lat="45.37036" lon="4.63346">
        <ele>812</ele>
        <time>2022-03-11T11:06:28Z</time>
      </trkpt>
      <trkpt lat="45.3705" lon="4.63223">
        <ele>825</ele>
        <time>2022-03-11T11:07:12Z</time>
      </trkpt>
      <trkpt lat="45.37086" lon="4.63098">
        <ele>836</ele>
        <time>2022-03-11T11:07:59Z</time>
      </trkpt>
      <trkpt lat="45.3712" lon="4.63011">
        <ele>847</ele>
        <time>2022-03-11T11:08:34Z</time>
      </trkpt>
      <trkpt lat="45.37226" lon="4.62935">
        <ele>862</ele>
        <time>2022-03-11T11:09:33Z</time>
      </trkpt>
      <trkpt lat="45.373" lon="4.62847">
        <ele>869</ele>
        <time>2022-03-11T11:10:22Z</time>
      </trkpt>
      <trkpt lat="45.37304" lon="4.62786">
        <ele>880</ele>
        <time>2022-03-11T11:10:43Z</time>
      </trkpt>
      <trkpt lat="45.37296" lon="4.62626">
        <ele>904</ele>
        <time>2022-03-11T11:11:40Z</time>
      </trkpt>
      <trkpt lat="45.37299" lon="4.62565">
        <ele>916</ele>
        <time>2022-03-11T11:12:01Z</time>
      </trkpt>
      <trkpt lat="45.37274" lon="4.62508">
        <ele>920</ele>
        <time>2022-03-11T11:12:25Z</time>
      </trkpt>
      <trkpt lat="45.37241" lon="4.62461">
        <ele>921</ele>
        <time>2022-03-11T11:12:48Z</time>
      </trkpt>
      <trkpt lat="45.37185" lon="4.62445">
        <ele>921</ele>
        <time>2022-03-11T11:13:17Z</time>
      </trkpt>
      <trkpt lat="45.37119" lon="4.62509">
        <ele>913</ele>
        <time>2022-03-11T11:13:57Z</time>
      </trkpt>
      <trkpt lat="45.37066" lon="4.62568">
        <ele>908</ele>
        <time>2022-03-11T11:14:30Z</time>
      </trkpt>
      <trkpt lat="45.3703" lon="4.62603">
        <ele>908</ele>
        <time>2022-03-11T11:14:52Z</time>
      </trkpt>
      <trkpt lat="45.36996" lon="4.62643">
        <ele>905</ele>
        <time>2022-03-11T11:15:14Z</time>
      </trkpt>
      <trkpt lat="45.36929" lon="4.62654">
        <ele>915</ele>
        <time>2022-03-11T11:15:48Z</time>
      </trkpt>
      <trkpt lat="45.36949" lon="4.62563">
        <ele>929</ele>
        <time>2022-03-11T11:16:21Z</time>
      </trkpt>
      <trkpt lat="45.36942" lon="4.62516">
        <ele>939</ele>
        <time>2022-03-11T11:16:38Z</time>
      </trkpt>
      <trkpt lat="45.36898" lon="4.62502">
        <ele>950</ele>
        <time>2022-03-11T11:17:01Z</time>
      </trkpt>
      <trkpt lat="45.36864" lon="4.62425">
        <ele>972</ele>
        <time>2022-03-11T11:17:33Z</time>
      </trkpt>
      <trkpt lat="45.36766" lon="4.62499">
        <ele>966</ele>
        <time>2022-03-11T11:18:28Z</time>
      </trkpt>
      <trkpt lat="45.36735" lon="4.62505">
        <ele>965</ele>
        <time>2022-03-11T11:18:44Z</time>
      </trkpt>
      <trkpt lat="45.36752" lon="4.62427">
        <ele>983</ele>
        <time>2022-03-11T11:19:13Z</time>
      </trkpt>
      <trkpt lat="45.36699" lon="4.62386">
        <ele>991</ele>
        <time>2022-03-11T11:19:43Z</time>
      </trkpt>
      <trkpt lat="45.36685" lon="4.62357">
        <ele>999</ele>
        <time>2022-03-11T11:19:55Z</time>
      </trkpt>
      <trkpt lat="45.3667" lon="4.62357">
        <ele>999</ele>
        <time>2022-03-11T11:20:03Z</time>
      </trkpt>
      <trkpt lat="45.36663" lon="4.62323">
        <ele>1010</ele>
        <time>2022-03-11T11:20:15Z</time>
      </trkpt>
      <trkpt lat="45.36691" lon="4.6227">
        <ele>1030</ele>
        <time>2022-03-11T11:20:39Z</time>
      </trkpt>
      <trkpt lat="45.3672" lon="4.62242">
        <ele>1041</ele>
        <time>2022-03-11T11:20:56Z</time>
      </trkpt>
      <trkpt lat="45.36713" lon="4.62166">
        <ele>1072</ele>
        <time>2022-03-11T11:21:23Z</time>
      </trkpt>
      <trkpt lat="45.36726" lon="4.62105">
        <ele>1093</ele>
        <time>2022-03-11T11:21:45Z</time>
      </trkpt>
      <trkpt lat="45.36715" lon="4.62072">
        <ele>1101</ele>
        <time>2022-03-11T11:21:58Z</time>
      </trkpt>
      <trkpt lat="45.36728" lon="4.62007">
        <ele>1107</ele>
        <time>2022-03-11T11:22:22Z</time>
      </trkpt>
      <trkpt lat="45.36737" lon="4.61989">
        <ele>1106</ele>
        <time>2022-03-11T11:22:30Z</time>
      </trkpt>
      <trkpt lat="45.3676" lon="4.62013">
        <ele>1102</ele>
        <time>2022-03-11T11:22:44Z</time>
      </trkpt>
      <trkpt lat="45.36773" lon="4.62009">
        <ele>1099</ele>
        <time>2022-03-11T11:22:51Z</time>
      </trkpt>
      <trkpt lat="45.36778" lon="4.61865">
        <ele>1084</ele>
        <time>2022-03-11T11:23:41Z</time>
      </trkpt>
      <trkpt lat="45.36773" lon="4.61802">
        <ele>1078</ele>
        <time>2022-03-11T11:24:04Z</time>
      </trkpt>
      <trkpt lat="45.3688" lon="4.61675">
        <ele>1061</ele>
        <time>2022-03-11T11:25:13Z</time>
      </trkpt>
      <trkpt lat="45.36967" lon="4.61605">
        <ele>1061</ele>
        <time>2022-03-11T11:26:03Z</time>
      </trkpt>
      <trkpt lat="45.37027" lon="4.61597">
        <ele>1069</ele>
        <time>2022-03-11T11:26:34Z</time>
      </trkpt>
      <trkpt lat="45.37119" lon="4.617">
        <ele>1078</ele>
        <time>2022-03-11T11:27:32Z</time>
      </trkpt>
      <trkpt lat="45.37232" lon="4.61801">
        <ele>1087</ele>
        <time>2022-03-11T11:28:39Z</time>
      </trkpt>
      <trkpt lat="45.37264" lon="4.61848">
        <ele>1082</ele>
        <time>2022-03-11T11:29:02Z</time>
      </trkpt>
      <trkpt lat="45.37299" lon="4.61891">
        <ele>1072</ele>
        <time>2022-03-11T11:29:25Z</time>
      </trkpt>
      <trkpt lat="45.37349" lon="4.61884">
        <ele>1083</ele>
        <time>2022-03-11T11:29:50Z</time>
      </trkpt>
      <trkpt lat="45.37429" lon="4.61855">
        <ele>1108</ele>
        <time>2022-03-11T11:30:32Z</time>
      </trkpt>
      <trkpt lat="45.3748" lon="4.61872">
        <ele>1115</ele>
        <time>2022-03-11T11:30:58Z</time>
      </trkpt>
      <trkpt lat="45.37492" lon="4.6184">
        <ele>1126</ele>
        <time>2022-03-11T11:31:11Z</time>
      </trkpt>
      <trkpt lat="45.37533" lon="4.61847">
        <ele>1132</ele>
        <time>2022-03-11T11:31:31Z</time>
      </trkpt>
      <trkpt lat="45.3755" lon="4.61801">
        <ele>1144</ele>
        <time>2022-03-11T11:31:49Z</time>
      </trkpt>
      <trkpt lat="45.37569" lon="4.61773">
        <ele>1152</ele>
        <time>2022-03-11T11:32:03Z</time>
      </trkpt>
      <trkpt lat="45.37599" lon="4.61758">
        <ele>1159</ele>
        <time>2022-03-11T11:32:19Z</time>
      </trkpt>
      <trkpt lat="45.37637" lon="4.61731">
        <ele>1167</ele>
        <time>2022-03-11T11:32:40Z</time>
      </trkpt>
      <trkpt lat="45.37688" lon="4.61622">
        <ele>1187</ele>
        <time>2022-03-11T11:33:26Z</time>
      </trkpt>
      <trkpt lat="45.37723" lon="4.61569">
        <ele>1197</ele>
        <time>2022-03-11T11:33:52Z</time>
      </trkpt>
      <trkpt lat="45.37777" lon="4.61567">
        <ele>1199</ele>
        <time>2022-03-11T11:34:19Z</time>
      </trkpt>
      <trkpt lat="45.37831" lon="4.61597">
        <ele>1193</ele>
        <time>2022-03-11T11:34:48Z</time>
      </trkpt>
      <trkpt lat="45.37867" lon="4.61526">
        <ele>1193</ele>
        <time>2022-03-11T11:35:19Z</time>
      </trkpt>
      <trkpt lat="45.37898" lon="4.61497">
        <ele>1192</ele>
        <time>2022-03-11T11:35:37Z</time>
      </trkpt>
      <trkpt lat="45.37963" lon="4.61516">
        <ele>1184</ele>
        <time>2022-03-11T11:36:11Z</time>
      </trkpt>
      <trkpt lat="45.38041" lon="4.61483">
        <ele>1185</ele>
        <time>2022-03-11T11:36:51Z</time>
      </trkpt>
      <trkpt lat="45.38119" lon="4.61462">
        <ele>1190</ele>
        <time>2022-03-11T11:37:31Z</time>
      </trkpt>
      <trkpt lat="45.38365" lon="4.61443">
        <ele>1198</ele>
        <time>2022-03-11T11:39:34Z</time>
      </trkpt>
      <trkpt lat="45.38392" lon="4.61479">
        <ele>1197</ele>
        <time>2022-03-11T11:39:53Z</time>
      </trkpt>
      <trkpt lat="45.38459" lon="4.61488">
        <ele>1201</ele>
        <time>2022-03-11T11:40:26Z</time>
      </trkpt>
      <trkpt lat="45.38492" lon="4.61513">
        <ele>1204</ele>
        <time>2022-03-11T11:40:45Z</time>
      </trkpt>
      <trkpt lat="45.3852" lon="4.61505">
        <ele>1206</ele>
        <time>2022-03-11T11:40:59Z</time>
      </trkpt>
      <trkpt lat="45.3853" lon="4.61542">
        <ele>1206</ele>
        <time>2022-03-11T11:41:13Z</time>
      </trkpt>
      <trkpt lat="45.38598" lon="4.61517">
        <ele>1211</ele>
        <time>2022-03-11T11:41:49Z</time>
      </trkpt>
      <trkpt lat="45.38684" lon="4.61507">
        <ele>1219</ele>
        <time>2022-03-11T11:42:32Z</time>
      </trkpt>
      <trkpt lat="45.38785" lon="4.61431">
        <ele>1223</ele>
        <time>2022-03-11T11:43:29Z</time>
      </trkpt>
      <trkpt lat="45.38818" lon="4.615">
        <ele>1232</ele>
        <time>2022-03-11T11:43:58Z</time>
      </trkpt>
      <trkpt lat="45.3884" lon="4.61525">
        <ele>1235</ele>
        <time>2022-03-11T11:44:12Z</time>
      </trkpt>
      <trkpt lat="45.38854" lon="4.61565">
        <ele>1236</ele>
        <time>2022-03-11T11:44:28Z</time>
      </trkpt>
      <trkpt lat="45.38899" lon="4.61576">
        <ele>1236</ele>
        <time>2022-03-11T11:44:51Z</time>
      </trkpt>
      <trkpt lat="45.38964" lon="4.61532">
        <ele>1243</ele>
        <time>2022-03-11T11:45:27Z</time>
      </trkpt>
      <trkpt lat="45.3911" lon="4.61364">
        <ele>1295</ele>
        <time>2022-03-11T11:47:01Z</time>
      </trkpt>
      <trkpt lat="45.39184" lon="4.61288">
        <ele>1325</ele>
        <time>2022-03-11T11:47:46Z</time>
      </trkpt>
      <trkpt lat="45.39268" lon="4.61231">
        <ele>1345</ele>
        <time>2022-03-11T11:48:33Z</time>
      </trkpt>
      <trkpt lat="45.39276" lon="4.61172">
        <ele>1348</ele>
        <time>2022-03-11T11:48:54Z</time>
      </trkpt>
      <trkpt lat="45.39263" lon="4.61047">
        <ele>1348</ele>
        <time>2022-03-11T11:49:39Z</time>
      </trkpt>
      <trkpt lat="45.39101" lon="4.60771">
        <ele>1320</ele>
        <time>2022-03-11T11:51:45Z</time>
      </trkpt>
      <trkpt lat="45.39053" lon="4.60712">
        <ele>1326</ele>
        <time>2022-03-11T11:52:17Z</time>
      </trkpt>
      <trkpt lat="45.39027" lon="4.60597">
        <ele>1343</ele>
        <time>2022-03-11T11:52:59Z</time>
      </trkpt>
      <trkpt lat="45.39031" lon="4.60466">
        <ele>1357</ele>
        <time>2022-03-11T11:53:45Z</time>
      </trkpt>
      <trkpt lat="45.39014" lon="4.60463">
        <ele>1362</ele>
        <time>2022-03-11T11:53:54Z</time>
      </trkpt>
      <trkpt lat="45.39005" lon="4.60397">
        <ele>1370</ele>
        <time>2022-03-11T11:54:17Z</time>
      </trkpt>
      <trkpt lat="45.38993" lon="4.60339">
        <ele>1376</ele>
        <time>2022-03-11T11:54:39Z</time>
      </trkpt>
      <trkpt lat="45.38972" lon="4.60263">
        <ele>1376</ele>
        <time>2022-03-11T11:55:07Z</time>
      </trkpt>
      <trkpt lat="45.38922" lon="4.60121">
        <ele>1364</ele>
        <time>2022-03-11T11:56:03Z</time>
      </trkpt>
      <trkpt lat="45.38908" lon="4.60056">
        <ele>1356</ele>
        <time>2022-03-11T11:56:27Z</time>
      </trkpt>
      <trkpt lat="45.38881" lon="4.59964">
        <ele>1344</ele>
        <time>2022-03-11T11:57:02Z</time>
      </trkpt>
      <trkpt lat="45.38864" lon="4.59921">
        <ele>1341</ele>
        <time>2022-03-11T11:57:19Z</time>
      </trkpt>
      <trkpt lat="45.38865" lon="4.59883">
        <ele>1341</ele>
        <time>2022-03-11T11:57:33Z</time>
      </trkpt>
      <trkpt lat="45.38685" lon="4.59617">
        <ele>1373</ele>
        <time>2022-03-11T11:59:43Z</time>
      </trkpt>
      <trkpt lat="45.38683" lon="4.59519">
        <ele>1376</ele>
        <time>2022-03-11T12:00:17Z</time>
      </trkpt>
      <trkpt lat="45.38654" lon="4.59371">
        <ele>1375</ele>
        <time>2022-03-11T12:01:11Z</time>
      </trkpt>
      <trkpt lat="45.38595" lon="4.59256">
        <ele>1384</ele>
        <time>2022-03-11T12:02:01Z</time>
      </trkpt>
      <trkpt lat="45.38501" lon="4.59228">
        <ele>1384</ele>
        <time>2022-03-11T12:02:49Z</time>
      </trkpt>
      <trkpt lat="45.3851" lon="4.58936">
        <ele>1378</ele>
        <time>2022-03-11T12:04:32Z</time>
      </trkpt>
      <trkpt lat="45.38476" lon="4.58807">
        <ele>1367</ele>
        <time>2022-03-11T12:05:20Z</time>
      </trkpt>
      <trkpt lat="45.38442" lon="4.5875">
        <ele>1364</ele>
        <time>2022-03-11T12:05:47Z</time>
      </trkpt>
      <trkpt lat="45.38441" lon="4.587">
        <ele>1364</ele>
        <time>2022-03-11T12:06:04Z</time>
      </trkpt>
      <trkpt lat="45.38417" lon="4.58648">
        <ele>1366</ele>
        <time>2022-03-11T12:06:26Z</time>
      </trkpt>
      <trkpt lat="45.38323" lon="4.58568">
        <ele>1376</ele>
        <time>2022-03-11T12:07:21Z</time>
      </trkpt>
      <trkpt lat="45.38278" lon="4.58571">
        <ele>1375</ele>
        <time>2022-03-11T12:07:43Z</time>
      </trkpt>
      <trkpt lat="45.38245" lon="4.58525">
        <ele>1380</ele>
        <time>2022-03-11T12:08:07Z</time>
      </trkpt>
      <trkpt lat="45.382" lon="4.58519">
        <ele>1381</ele>
        <time>2022-03-11T12:08:29Z</time>
      </trkpt>
      <trkpt lat="45.38178" lon="4.58451">
        <ele>1388</ele>
        <time>2022-03-11T12:08:56Z</time>
      </trkpt>
      <trkpt lat="45.38247" lon="4.58285">
        <ele>1404</ele>
        <time>2022-03-11T12:10:03Z</time>
      </trkpt>
      <trkpt lat="45.38277" lon="4.58154">
        <ele>1414</ele>
        <time>2022-03-11T12:10:52Z</time>
      </trkpt>
      <trkpt lat="45.38264" lon="4.58127">
        <ele>1417</ele>
        <time>2022-03-11T12:11:03Z</time>
      </trkpt>
      <trkpt lat="45.38282" lon="4.58089">
        <ele>1418</ele>
        <time>2022-03-11T12:11:19Z</time>
      </trkpt>
      <trkpt lat="45.3827" lon="4.58033">
        <ele>1421</ele>
        <time>2022-03-11T12:11:40Z</time>
      </trkpt>
      <trkpt lat="45.3814" lon="4.58067">
        <ele>1424</ele>
        <time>2022-03-11T12:12:46Z</time>
      </trkpt>
      <trkpt lat="45.37955" lon="4.58132">
        <ele>1412</ele>
        <time>2022-03-11T12:14:21Z</time>
      </trkpt>
      <trkpt lat="45.37994" lon="4.58002">
        <ele>1405</ele>
        <time>2022-03-11T12:15:11Z</time>
      </trkpt>
      <trkpt lat="45.38021" lon="4.57872">
        <ele>1391</ele>
        <time>2022-03-11T12:15:59Z</time>
      </trkpt>
      <trkpt lat="45.38049" lon="4.57809">
        <ele>1386</ele>
        <time>2022-03-11T12:16:25Z</time>
      </trkpt>
      <trkpt lat="45.38109" lon="4.57793">
        <ele>1392</ele>
        <time>2022-03-11T12:16:56Z</time>
      </trkpt>
      <trkpt lat="45.38203" lon="4.5773">
        <ele>1396</ele>
        <time>2022-03-11T12:17:48Z</time>
      </trkpt>
      <trkpt lat="45.38258" lon="4.57631">
        <ele>1398</ele>
        <time>2022-03-11T12:18:32Z</time>
      </trkpt>
      <trkpt lat="45.38294" lon="4.57629">
        <ele>1398</ele>
        <time>2022-03-11T12:18:50Z</time>
      </trkpt>
      <trkpt lat="45.38263" lon="4.57384">
        <ele>1413</ele>
        <time>2022-03-11T12:20:17Z</time>
      </trkpt>
      <trkpt lat="45.38255" lon="4.57244">
        <ele>1421</ele>
        <time>2022-03-11T12:21:07Z</time>
      </trkpt>
      <trkpt lat="45.3838" lon="4.57238">
        <ele>1406</ele>
        <time>2022-03-11T12:22:09Z</time>
      </trkpt>
      <trkpt lat="45.38454" lon="4.57188">
        <ele>1394</ele>
        <time>2022-03-11T12:22:50Z</time>
      </trkpt>
      <trkpt lat="45.38417" lon="4.57605">
        <ele>1392</ele>
        <time>2022-03-11T12:25:18Z</time>
      </trkpt>
      <trkpt lat="45.38558" lon="4.57587">
        <ele>1370</ele>
        <time>2022-03-11T12:26:29Z</time>
      </trkpt>
      <trkpt lat="45.38639" lon="4.57554">
        <ele>1357</ele>
        <time>2022-03-11T12:27:11Z</time>
      </trkpt>
      <trkpt lat="45.38724" lon="4.57488">
        <ele>1341</ele>
        <time>2022-03-11T12:28:00Z</time>
      </trkpt>
      <trkpt lat="45.38838" lon="4.57459">
        <ele>1323</ele>
        <time>2022-03-11T12:28:58Z</time>
      </trkpt>
      <trkpt lat="45.38957" lon="4.57396">
        <ele>1308</ele>
        <time>2022-03-11T12:30:01Z</time>
      </trkpt>
      <trkpt lat="45.39032" lon="4.57404">
        <ele>1309</ele>
        <time>2022-03-11T12:30:39Z</time>
      </trkpt>
      <trkpt lat="45.39028" lon="4.57354">
        <ele>1303</ele>
        <time>2022-03-11T12:30:56Z</time>
      </trkpt>
      <trkpt lat="45.3899" lon="4.57319">
        <ele>1302</ele>
        <time>2022-03-11T12:31:19Z</time>
      </trkpt>
      <trkpt lat="45.38992" lon="4.57183">
        <ele>1310</ele>
        <time>2022-03-11T12:32:07Z</time>
      </trkpt>
      <trkpt lat="45.39005" lon="4.57032">
        <ele>1304</ele>
        <time>2022-03-11T12:33:00Z</time>
      </trkpt>
      <trkpt lat="45.39042" lon="4.5679">
        <ele>1282</ele>
        <time>2022-03-11T12:34:27Z</time>
      </trkpt>
      <trkpt lat="45.392" lon="4.56628">
        <ele>1251</ele>
        <time>2022-03-11T12:36:05Z</time>
      </trkpt>
      <trkpt lat="45.39248" lon="4.56656">
        <ele>1240</ele>
        <time>2022-03-11T12:36:31Z</time>
      </trkpt>
      <trkpt lat="45.39303" lon="4.56574">
        <ele>1223</ele>
        <time>2022-03-11T12:37:11Z</time>
      </trkpt>
      <trkpt lat="45.39339" lon="4.56471">
        <ele>1204</ele>
        <time>2022-03-11T12:37:51Z</time>
      </trkpt>
      <trkpt lat="45.39398" lon="4.56364">
        <ele>1172</ele>
        <time>2022-03-11T12:38:39Z</time>
      </trkpt>
      <trkpt lat="45.3942" lon="4.56296">
        <ele>1159</ele>
        <time>2022-03-11T12:39:05Z</time>
      </trkpt>
      <trkpt lat="45.39436" lon="4.56213">
        <ele>1134</ele>
        <time>2022-03-11T12:39:35Z</time>
      </trkpt>
      <trkpt lat="45.39497" lon="4.56029">
        <ele>1073</ele>
        <time>2022-03-11T12:40:47Z</time>
      </trkpt>
      <trkpt lat="45.39587" lon="4.55968">
        <ele>1026</ele>
        <time>2022-03-11T12:41:37Z</time>
      </trkpt>
      <trkpt lat="45.39645" lon="4.55998">
        <ele>993</ele>
        <time>2022-03-11T12:42:08Z</time>
      </trkpt>
      <trkpt lat="45.39656" lon="4.55881">
        <ele>978</ele>
        <time>2022-03-11T12:42:49Z</time>
      </trkpt>
      <trkpt lat="45.39626" lon="4.55749">
        <ele>970</ele>
        <time>2022-03-11T12:43:38Z</time>
      </trkpt>
      <trkpt lat="45.39562" lon="4.55698">
        <ele>968</ele>
        <time>2022-03-11T12:44:15Z</time>
      </trkpt>
      <trkpt lat="45.39553" lon="4.55643">
        <ele>950</ele>
        <time>2022-03-11T12:44:34Z</time>
      </trkpt>
      <trkpt lat="45.39487" lon="4.55562">
        <ele>932</ele>
        <time>2022-03-11T12:45:18Z</time>
      </trkpt>
      <trkpt lat="45.39548" lon="4.55531">
        <ele>915</ele>
        <time>2022-03-11T12:45:50Z</time>
      </trkpt>
      <trkpt lat="45.39599" lon="4.55531">
        <ele>906</ele>
        <time>2022-03-11T12:46:16Z</time>
      </trkpt>
      <trkpt lat="45.39527" lon="4.55343">
        <ele>863</ele>
        <time>2022-03-11T12:47:31Z</time>
      </trkpt>
      <trkpt lat="45.39563" lon="4.55338">
        <ele>856</ele>
        <time>2022-03-11T12:47:49Z</time>
      </trkpt>
      <trkpt lat="45.3954" lon="4.55278">
        <ele>840</ele>
        <time>2022-03-11T12:48:13Z</time>
      </trkpt>
      <trkpt lat="45.39312" lon="4.55228">
        <ele>836</ele>
        <time>2022-03-11T12:50:09Z</time>
      </trkpt>
      <trkpt lat="45.39365" lon="4.55157">
        <ele>826</ele>
        <time>2022-03-11T12:50:45Z</time>
      </trkpt>
      <trkpt lat="45.39416" lon="4.55122">
        <ele>821</ele>
        <time>2022-03-11T12:51:13Z</time>
      </trkpt>
      <trkpt lat="45.39457" lon="4.5501">
        <ele>824</ele>
        <time>2022-03-11T12:51:58Z</time>
      </trkpt>
      <trkpt lat="45.39383" lon="4.54922">
        <ele>834</ele>
        <time>2022-03-11T12:52:46Z</time>
      </trkpt>
      <trkpt lat="45.3937" lon="4.54941">
        <ele>840</ele>
        <time>2022-03-11T12:52:55Z</time>
      </trkpt>
      <trkpt lat="45.3938" lon="4.54965">
        <ele>841</ele>
        <time>2022-03-11T12:53:05Z</time>
      </trkpt>
      <trkpt lat="45.39367" lon="4.54978">
        <ele>846</ele>
        <time>2022-03-11T12:53:13Z</time>
      </trkpt>
      <trkpt lat="45.39312" lon="4.54973">
        <ele>860</ele>
        <time>2022-03-11T12:53:41Z</time>
      </trkpt>
      <trkpt lat="45.39181" lon="4.55037">
        <ele>901</ele>
        <time>2022-03-11T12:54:50Z</time>
      </trkpt>
      <trkpt lat="45.39164" lon="4.55064">
        <ele>908</ele>
        <time>2022-03-11T12:55:03Z</time>
      </trkpt>
      <trkpt lat="45.39097" lon="4.55062">
        <ele>925</ele>
        <time>2022-03-11T12:55:36Z</time>
      </trkpt>
      <trkpt lat="45.39071" lon="4.55093">
        <ele>934</ele>
        <time>2022-03-11T12:55:53Z</time>
      </trkpt>
      <trkpt lat="45.39038" lon="4.5508">
        <ele>942</ele>
        <time>2022-03-11T12:56:10Z</time>
      </trkpt>
      <trkpt lat="45.38985" lon="4.55102">
        <ele>952</ele>
        <time>2022-03-11T12:56:38Z</time>
      </trkpt>
      <trkpt lat="45.38897" lon="4.55094">
        <ele>974</ele>
        <time>2022-03-11T12:57:22Z</time>
      </trkpt>
      <trkpt lat="45.38834" lon="4.55108">
        <ele>984</ele>
        <time>2022-03-11T12:57:54Z</time>
      </trkpt>
      <trkpt lat="45.38784" lon="4.55163">
        <ele>995</ele>
        <time>2022-03-11T12:58:26Z</time>
      </trkpt>
      <trkpt lat="45.38683" lon="4.55196">
        <ele>1005</ele>
        <time>2022-03-11T12:59:18Z</time>
      </trkpt>
      <trkpt lat="45.38616" lon="4.55211">
        <ele>1014</ele>
        <time>2022-03-11T12:59:52Z</time>
      </trkpt>
      <trkpt lat="45.38562" lon="4.55211">
        <ele>1020</ele>
        <time>2022-03-11T13:00:19Z</time>
      </trkpt>
      <trkpt lat="45.38503" lon="4.55224">
        <ele>1029</ele>
        <time>2022-03-11T13:00:48Z</time>
      </trkpt>
      <trkpt lat="45.38397" lon="4.55228">
        <ele>1038</ele>
        <time>2022-03-11T13:01:42Z</time>
      </trkpt>
      <trkpt lat="45.38334" lon="4.55264">
        <ele>1050</ele>
        <time>2022-03-11T13:02:15Z</time>
      </trkpt>
      <trkpt lat="45.3826" lon="4.55258">
        <ele>1067</ele>
        <time>2022-03-11T13:02:53Z</time>
      </trkpt>
      <trkpt lat="45.38221" lon="4.55159">
        <ele>1071</ele>
        <time>2022-03-11T13:03:32Z</time>
      </trkpt>
      <trkpt lat="45.38223" lon="4.55015">
        <ele>1069</ele>
        <time>2022-03-11T13:04:23Z</time>
      </trkpt>
      <trkpt lat="45.38313" lon="4.55006">
        <ele>1044</ele>
        <time>2022-03-11T13:05:08Z</time>
      </trkpt>
      <trkpt lat="45.38366" lon="4.54904">
        <ele>1040</ele>
        <time>2022-03-11T13:05:53Z</time>
      </trkpt>
      <trkpt lat="45.38407" lon="4.54608">
        <ele>1021</ele>
        <time>2022-03-11T13:07:39Z</time>
      </trkpt>
      <trkpt lat="45.38339" lon="4.54437">
        <ele>1032</ele>
        <time>2022-03-11T13:08:48Z</time>
      </trkpt>
      <trkpt lat="45.38285" lon="4.54216">
        <ele>1025</ele>
        <time>2022-03-11T13:10:10Z</time>
      </trkpt>
      <trkpt lat="45.38139" lon="4.54184">
        <ele>1015</ele>
        <time>2022-03-11T13:11:24Z</time>
      </trkpt>
      <trkpt lat="45.38008" lon="4.54104">
        <ele>995</ele>
        <time>2022-03-11T13:12:35Z</time>
      </trkpt>
      <trkpt lat="45.37904" lon="4.54159">
        <ele>1028</ele>
        <time>2022-03-11T13:13:31Z</time>
      </trkpt>
      <trkpt lat="45.37783" lon="4.54149">
        <ele>1050</ele>
        <time>2022-03-11T13:14:32Z</time>
      </trkpt>
      <trkpt lat="45.37717" lon="4.54122">
        <ele>1062</ele>
        <time>2022-03-11T13:15:06Z</time>
      </trkpt>
      <trkpt lat="45.37641" lon="4.5406">
        <ele>1072</ele>
        <time>2022-03-11T13:15:50Z</time>
      </trkpt>
      <trkpt lat="45.37596" lon="4.54007">
        <ele>1077</ele>
        <time>2022-03-11T13:16:19Z</time>
      </trkpt>
      <trkpt lat="45.37589" lon="4.53945">
        <ele>1074</ele>
        <time>2022-03-11T13:16:41Z</time>
      </trkpt>
      <trkpt lat="45.3754" lon="4.53919">
        <ele>1091</ele>
        <time>2022-03-11T13:17:07Z</time>
      </trkpt>
      <trkpt lat="45.375" lon="4.53943">
        <ele>1106</ele>
        <time>2022-03-11T13:17:29Z</time>
      </trkpt>
      <trkpt lat="45.37335" lon="4.53937">
        <ele>1154</ele>
        <time>2022-03-11T13:18:52Z</time>
      </trkpt>
      <trkpt lat="45.37224" lon="4.53844">
        <ele>1186</ele>
        <time>2022-03-11T13:19:56Z</time>
      </trkpt>
      <trkpt lat="45.37256" lon="4.53684">
        <ele>1183</ele>
        <time>2022-03-11T13:20:55Z</time>
      </trkpt>
      <trkpt lat="45.37325" lon="4.53527">
        <ele>1182</ele>
        <time>2022-03-11T13:22:00Z</time>
      </trkpt>
      <trkpt lat="45.37362" lon="4.5347">
        <ele>1186</ele>
        <time>2022-03-11T13:22:27Z</time>
      </trkpt>
      <trkpt lat="45.37412" lon="4.53465">
        <ele>1182</ele>
        <time>2022-03-11T13:22:52Z</time>
      </trkpt>
      <trkpt lat="45.37449" lon="4.53385">
        <ele>1200</ele>
        <time>2022-03-11T13:23:26Z</time>
      </trkpt>
      <trkpt lat="45.37452" lon="4.53323">
        <ele>1217</ele>
        <time>2022-03-11T13:23:48Z</time>
      </trkpt>
      <trkpt lat="45.37367" lon="4.53274">
        <ele>1230</ele>
        <time>2022-03-11T13:24:33Z</time>
      </trkpt>
      <trkpt lat="45.37319" lon="4.53161">
        <ele>1245</ele>
        <time>2022-03-11T13:25:20Z</time>
      </trkpt>
      <trkpt lat="45.37251" lon="4.53118">
        <ele>1244</ele>
        <time>2022-03-11T13:25:57Z</time>
      </trkpt>
      <trkpt lat="45.37254" lon="4.53004">
        <ele>1227</ele>
        <time>2022-03-11T13:26:37Z</time>
      </trkpt>
      <trkpt lat="45.37194" lon="4.52964">
        <ele>1219</ele>
        <time>2022-03-11T13:27:10Z</time>
      </trkpt>
      <trkpt lat="45.37094" lon="4.52946">
        <ele>1215</ele>
        <time>2022-03-11T13:28:01Z</time>
      </trkpt>
      <trkpt lat="45.3699" lon="4.52949">
        <ele>1213</ele>
        <time>2022-03-11T13:28:53Z</time>
      </trkpt>
      <trkpt lat="45.36941" lon="4.52905">
        <ele>1208</ele>
        <time>2022-03-11T13:29:22Z</time>
      </trkpt>
      <trkpt lat="45.36799" lon="4.52796">
        <ele>1205</ele>
        <time>2022-03-11T13:30:43Z</time>
      </trkpt>
      <trkpt lat="45.36786" lon="4.52756">
        <ele>1208</ele>
        <time>2022-03-11T13:30:58Z</time>
      </trkpt>
      <trkpt lat="45.36564" lon="4.5253">
        <ele>1240</ele>
        <time>2022-03-11T13:33:15Z</time>
      </trkpt>
      <trkpt lat="45.3661" lon="4.52356">
        <ele>1238</ele>
        <time>2022-03-11T13:34:20Z</time>
      </trkpt>
      <trkpt lat="45.3673" lon="4.51996">
        <ele>1200</ele>
        <time>2022-03-11T13:36:40Z</time>
      </trkpt>
      <trkpt lat="45.36767" lon="4.5186">
        <ele>1187</ele>
        <time>2022-03-11T13:37:31Z</time>
      </trkpt>
      <trkpt lat="45.36841" lon="4.51653">
        <ele>1175</ele>
        <time>2022-03-11T13:38:53Z</time>
      </trkpt>
      <trkpt lat="45.36887" lon="4.51602">
        <ele>1173</ele>
        <time>2022-03-11T13:39:22Z</time>
      </trkpt>
      <trkpt lat="45.36915" lon="4.51483">
        <ele>1176</ele>
        <time>2022-03-11T13:40:06Z</time>
      </trkpt>
      <trkpt lat="45.36965" lon="4.51373">
        <ele>1171</ele>
        <time>2022-03-11T13:40:52Z</time>
      </trkpt>
      <trkpt lat="45.37039" lon="4.51294">
        <ele>1165</ele>
        <time>2022-03-11T13:41:39Z</time>
      </trkpt>
      <trkpt lat="45.37078" lon="4.51288">
        <ele>1165</ele>
        <time>2022-03-11T13:41:58Z</time>
      </trkpt>
      <trkpt lat="45.3715" lon="4.51179">
        <ele>1170</ele>
        <time>2022-03-11T13:42:51Z</time>
      </trkpt>
      <trkpt lat="45.37182" lon="4.51112">
        <ele>1174</ele>
        <time>2022-03-11T13:43:19Z</time>
      </trkpt>
      <trkpt lat="45.37204" lon="4.50924">
        <ele>1182</ele>
        <time>2022-03-11T13:44:26Z</time>
      </trkpt>
      <trkpt lat="45.37191" lon="4.50792">
        <ele>1185</ele>
        <time>2022-03-11T13:45:13Z</time>
      </trkpt>
      <trkpt lat="45.3723" lon="4.50614">
        <ele>1178</ele>
        <time>2022-03-11T13:46:19Z</time>
      </trkpt>
      <trkpt lat="45.37342" lon="4.50415">
        <ele>1168</ele>
        <time>2022-03-11T13:47:48Z</time>
      </trkpt>
      <trkpt lat="45.37377" lon="4.50318">
        <ele>1164</ele>
        <time>2022-03-11T13:48:27Z</time>
      </trkpt>
      <trkpt lat="45.37408" lon="4.50309">
        <ele>1167</ele>
        <time>2022-03-11T13:48:43Z</time>
      </trkpt>
      <trkpt lat="45.37537" lon="4.50091">
        <ele>1160</ele>
        <time>2022-03-11T13:50:23Z</time>
      </trkpt>
      <trkpt lat="45.37624" lon="4.49957">
        <ele>1155</ele>
        <time>2022-03-11T13:51:27Z</time>
      </trkpt>
      <trkpt lat="45.37666" lon="4.49749">
        <ele>1142</ele>
        <time>2022-03-11T13:52:43Z</time>
      </trkpt>
      <trkpt lat="45.37729" lon="4.49579">
        <ele>1134</ele>
        <time>2022-03-11T13:53:51Z</time>
      </trkpt>
      <trkpt lat="45.37881" lon="4.49365">
        <ele>1120</ele>
        <time>2022-03-11T13:55:38Z</time>
      </trkpt>
      <trkpt lat="45.38014" lon="4.49214">
        <ele>1105</ele>
        <time>2022-03-11T13:57:03Z</time>
      </trkpt>
      <trkpt lat="45.38208" lon="4.49094">
        <ele>1093</ele>
        <time>2022-03-11T13:58:49Z</time>
      </trkpt>
      <trkpt lat="45.38305" lon="4.48997">
        <ele>1089</ele>
        <time>2022-03-11T13:59:48Z</time>
      </trkpt>
      <trkpt lat="45.38271" lon="4.48868">
        <ele>1095</ele>
        <time>2022-03-11T14:00:36Z</time>
      </trkpt>
      <trkpt lat="45.38224" lon="4.48795">
        <ele>1091</ele>
        <time>2022-03-11T14:01:11Z</time>
      </trkpt>
      <trkpt lat="45.38159" lon="4.48661">
        <ele>1070</ele>
        <time>2022-03-11T14:02:08Z</time>
      </trkpt>
      <trkpt lat="45.38154" lon="4.48599">
        <ele>1063</ele>
        <time>2022-03-11T14:02:30Z</time>
      </trkpt>
      <trkpt lat="45.38176" lon="4.48487">
        <ele>1060</ele>
        <time>2022-03-11T14:03:11Z</time>
      </trkpt>
      <trkpt lat="45.38215" lon="4.48402">
        <ele>1059</ele>
        <time>2022-03-11T14:03:47Z</time>
      </trkpt>
      <trkpt lat="45.38335" lon="4.48202">
        <ele>1061</ele>
        <time>2022-03-11T14:05:19Z</time>
      </trkpt>
      <trkpt lat="45.38398" lon="4.48118">
        <ele>1061</ele>
        <time>2022-03-11T14:06:02Z</time>
      </trkpt>
      <trkpt lat="45.38406" lon="4.48012">
        <ele>1052</ele>
        <time>2022-03-11T14:06:40Z</time>
      </trkpt>
      <trkpt lat="45.38463" lon="4.47904">
        <ele>1045</ele>
        <time>2022-03-11T14:07:27Z</time>
      </trkpt>
      <trkpt lat="45.38485" lon="4.47775">
        <ele>1035</ele>
        <time>2022-03-11T14:08:14Z</time>
      </trkpt>
      <trkpt lat="45.38534" lon="4.47596">
        <ele>1022</ele>
        <time>2022-03-11T14:09:22Z</time>
      </trkpt>
      <trkpt lat="45.38558" lon="4.47491">
        <ele>1014</ele>
        <time>2022-03-11T14:10:00Z</time>
      </trkpt>
      <trkpt lat="45.38545" lon="4.47441">
        <ele>1009</ele>
        <time>2022-03-11T14:10:19Z</time>
      </trkpt>
      <trkpt lat="45.38512" lon="4.47419">
        <ele>1005</ele>
        <time>2022-03-11T14:10:37Z</time>
      </trkpt>
      <trkpt lat="45.38457" lon="4.4746">
        <ele>1001</ele>
        <time>2022-03-11T14:11:08Z</time>
      </trkpt>
      <trkpt lat="45.3838" lon="4.47548">
        <ele>998</ele>
        <time>2022-03-11T14:11:58Z</time>
      </trkpt>
      <trkpt lat="45.38341" lon="4.47645">
        <ele>999</ele>
        <time>2022-03-11T14:12:37Z</time>
      </trkpt>
      <trkpt lat="45.38308" lon="4.47772">
        <ele>1005</ele>
        <time>2022-03-11T14:13:25Z</time>
      </trkpt>
      <trkpt lat="45.38247" lon="4.47827">
        <ele>996</ele>
        <time>2022-03-11T14:14:01Z</time>
      </trkpt>
      <trkpt lat="45.38187" lon="4.47957">
        <ele>1002</ele>
        <time>2022-03-11T14:14:56Z</time>
      </trkpt>
      <trkpt lat="45.38142" lon="4.47944">
        <ele>1006</ele>
        <time>2022-03-11T14:15:19Z</time>
      </trkpt>
      <trkpt lat="45.38129" lon="4.47751">
        <ele>1033</ele>
        <time>2022-03-11T14:16:27Z</time>
      </trkpt>
      <trkpt lat="45.38079" lon="4.47636">
        <ele>1049</ele>
        <time>2022-03-11T14:17:14Z</time>
      </trkpt>
      <trkpt lat="45.38092" lon="4.47576">
        <ele>1046</ele>
        <time>2022-03-11T14:17:36Z</time>
      </trkpt>
      <trkpt lat="45.38087" lon="4.47455">
        <ele>1060</ele>
        <time>2022-03-11T14:18:19Z</time>
      </trkpt>
      <trkpt lat="45.38097" lon="4.47387">
        <ele>1061</ele>
        <time>2022-03-11T14:18:43Z</time>
      </trkpt>
      <trkpt lat="45.38164" lon="4.47299">
        <ele>1051</ele>
        <time>2022-03-11T14:19:29Z</time>
      </trkpt>
      <trkpt lat="45.38106" lon="4.47298">
        <ele>1063</ele>
        <time>2022-03-11T14:19:58Z</time>
      </trkpt>
      <trkpt lat="45.38073" lon="4.47243">
        <ele>1071</ele>
        <time>2022-03-11T14:20:23Z</time>
      </trkpt>
      <trkpt lat="45.38043" lon="4.47115">
        <ele>1078</ele>
        <time>2022-03-11T14:21:11Z</time>
      </trkpt>
      <trkpt lat="45.37962" lon="4.46977">
        <ele>1062</ele>
        <time>2022-03-11T14:22:14Z</time>
      </trkpt>
      <trkpt lat="45.37799" lon="4.46927">
        <ele>1057</ele>
        <time>2022-03-11T14:23:37Z</time>
      </trkpt>
      <trkpt lat="45.37707" lon="4.46889">
        <ele>1048</ele>
        <time>2022-03-11T14:24:25Z</time>
      </trkpt>
      <trkpt lat="45.37636" lon="4.46909">
        <ele>1048</ele>
        <time>2022-03-11T14:25:02Z</time>
      </trkpt>
      <trkpt lat="45.37481" lon="4.4692">
        <ele>1034</ele>
        <time>2022-03-11T14:26:19Z</time>
      </trkpt>
      <trkpt lat="45.37428" lon="4.47001">
        <ele>1036</ele>
        <time>2022-03-11T14:26:58Z</time>
      </trkpt>
      <trkpt lat="45.37471" lon="4.469">
        <ele>1028</ele>
        <time>2022-03-11T14:27:40Z</time>
      </trkpt>
      <trkpt lat="45.37537" lon="4.46792">
        <ele>1014</ele>
        <time>2022-03-11T14:28:30Z</time>
      </trkpt>
      <trkpt lat="45.37754" lon="4.46585">
        <ele>990</ele>
        <time>2022-03-11T14:30:41Z</time>
      </trkpt>
      <trkpt lat="45.37729" lon="4.46524">
        <ele>974</ele>
        <time>2022-03-11T14:31:06Z</time>
      </trkpt>
      <trkpt lat="45.37768" lon="4.4634">
        <ele>950</ele>
        <time>2022-03-11T14:32:13Z</time>
      </trkpt>
      <trkpt lat="45.37831" lon="4.46236">
        <ele>936</ele>
        <time>2022-03-11T14:33:01Z</time>
      </trkpt>
      <trkpt lat="45.37818" lon="4.46174">
        <ele>920</ele>
        <time>2022-03-11T14:33:24Z</time>
      </trkpt>
      <trkpt lat="45.37788" lon="4.46176">
        <ele>918</ele>
        <time>2022-03-11T14:33:39Z</time>
      </trkpt>
      <trkpt lat="45.37794" lon="4.4613">
        <ele>907</ele>
        <time>2022-03-11T14:33:56Z</time>
      </trkpt>
      <trkpt lat="45.37808" lon="4.46085">
        <ele>899</ele>
        <time>2022-03-11T14:34:13Z</time>
      </trkpt>
      <trkpt lat="45.37916" lon="4.46222">
        <ele>915</ele>
        <time>2022-03-11T14:35:25Z</time>
      </trkpt>
      <trkpt lat="45.37926" lon="4.46332">
        <ele>917</ele>
        <time>2022-03-11T14:36:04Z</time>
      </trkpt>
      <trkpt lat="45.38024" lon="4.46492">
        <ele>919</ele>
        <time>2022-03-11T14:37:19Z</time>
      </trkpt>
      <trkpt lat="45.38176" lon="4.46607">
        <ele>924</ele>
        <time>2022-03-11T14:38:45Z</time>
      </trkpt>
      <trkpt lat="45.38219" lon="4.46664">
        <ele>930</ele>
        <time>2022-03-11T14:39:14Z</time>
      </trkpt>
      <trkpt lat="45.38242" lon="4.46712">
        <ele>935</ele>
        <time>2022-03-11T14:39:35Z</time>
      </trkpt>
      <trkpt lat="45.38288" lon="4.46756">
        <ele>938</ele>
        <time>2022-03-11T14:40:03Z</time>
      </trkpt>
      <trkpt lat="45.38308" lon="4.46747">
        <ele>937</ele>
        <time>2022-03-11T14:40:13Z</time>
      </trkpt>
      <trkpt lat="45.38299" lon="4.46699">
        <ele>941</ele>
        <time>2022-03-11T14:40:31Z</time>
      </trkpt>
      <trkpt lat="45.38253" lon="4.46634">
        <ele>938</ele>
        <time>2022-03-11T14:41:03Z</time>
      </trkpt>
      <trkpt lat="45.38219" lon="4.46559">
        <ele>940</ele>
        <time>2022-03-11T14:41:34Z</time>
      </trkpt>
      <trkpt lat="45.38177" lon="4.46405">
        <ele>950</ele>
        <time>2022-03-11T14:42:32Z</time>
      </trkpt>
      <trkpt lat="45.38102" lon="4.46316">
        <ele>931</ele>
        <time>2022-03-11T14:43:21Z</time>
      </trkpt>
      <trkpt lat="45.3809" lon="4.461">
        <ele>930</ele>
        <time>2022-03-11T14:44:37Z</time>
      </trkpt>
      <trkpt lat="45.38063" lon="4.45995">
        <ele>924</ele>
        <time>2022-03-11T14:45:17Z</time>
      </trkpt>
      <trkpt lat="45.3803" lon="4.45929">
        <ele>915</ele>
        <time>2022-03-11T14:45:45Z</time>
      </trkpt>
      <trkpt lat="45.38033" lon="4.459">
        <ele>915</ele>
        <time>2022-03-11T14:45:56Z</time>
      </trkpt>
      <trkpt lat="45.38078" lon="4.45856">
        <ele>921</ele>
        <time>2022-03-11T14:46:23Z</time>
      </trkpt>
      <trkpt lat="45.37968" lon="4.45832">
        <ele>890</ele>
        <time>2022-03-11T14:47:19Z</time>
      </trkpt>
      <trkpt lat="45.37942" lon="4.45841">
        <ele>883</ele>
        <time>2022-03-11T14:47:32Z</time>
      </trkpt>
      <trkpt lat="45.37944" lon="4.45775">
        <ele>870</ele>
        <time>2022-03-11T14:47:55Z</time>
      </trkpt>
      <trkpt lat="45.37882" lon="4.45786">
        <ele>863</ele>
        <time>2022-03-11T14:48:26Z</time>
      </trkpt>
      <trkpt lat="45.37877" lon="4.45836">
        <ele>868</ele>
        <time>2022-03-11T14:48:44Z</time>
      </trkpt>
      <trkpt lat="45.37854" lon="4.45792">
        <ele>862</ele>
        <time>2022-03-11T14:49:03Z</time>
      </trkpt>
      <trkpt lat="45.37854" lon="4.4576">
        <ele>859</ele>
        <time>2022-03-11T14:49:15Z</time>
      </trkpt>
      <trkpt lat="45.37876" lon="4.45757">
        <ele>860</ele>
        <time>2022-03-11T14:49:26Z</time>
      </trkpt>
      <trkpt lat="45.37886" lon="4.4575">
        <ele>859</ele>
        <time>2022-03-11T14:49:31Z</time>
      </trkpt>
      <trkpt lat="45.37865" lon="4.45707">
        <ele>855</ele>
        <time>2022-03-11T14:49:50Z</time>
      </trkpt>
      <trkpt lat="45.37841" lon="4.45648">
        <ele>858</ele>
        <time>2022-03-11T14:50:14Z</time>
      </trkpt>
      <trkpt lat="45.37826" lon="4.45583">
        <ele>871</ele>
        <time>2022-03-11T14:50:38Z</time>
      </trkpt>
      <trkpt lat="45.37849" lon="4.45559">
        <ele>872</ele>
        <time>2022-03-11T14:50:52Z</time>
      </trkpt>
      <trkpt lat="45.37868" lon="4.45566">
        <ele>864</ele>
        <time>2022-03-11T14:51:02Z</time>
      </trkpt>
      <trkpt lat="45.37914" lon="4.45534">
        <ele>860</ele>
        <time>2022-03-11T14:51:27Z</time>
      </trkpt>
      <trkpt lat="45.37887" lon="4.45575">
        <ele>857</ele>
        <time>2022-03-11T14:51:47Z</time>
      </trkpt>
      <trkpt lat="45.37927" lon="4.45552">
        <ele>853</ele>
        <time>2022-03-11T14:52:09Z</time>
      </trkpt>
      <trkpt lat="45.37967" lon="4.45513">
        <ele>852</ele>
        <time>2022-03-11T14:52:33Z</time>
      </trkpt>
      <trkpt lat="45.37982" lon="4.45504">
        <ele>849</ele>
        <time>2022-03-11T14:52:41Z</time>
      </trkpt>
      <trkpt lat="45.38" lon="4.45509">
        <ele>844</ele>
        <time>2022-03-11T14:52:50Z</time>
      </trkpt>
      <trkpt lat="45.38071" lon="4.45487">
        <ele>834</ele>
        <time>2022-03-11T14:53:27Z</time>
      </trkpt>
      <trkpt lat="45.38085" lon="4.45423">
        <ele>835</ele>
        <time>2022-03-11T14:53:50Z</time>
      </trkpt>
      <trkpt lat="45.38093" lon="4.45492">
        <ele>835</ele>
        <time>2022-03-11T14:54:15Z</time>
      </trkpt>
      <trkpt lat="45.38106" lon="4.45355">
        <ele>840</ele>
        <time>2022-03-11T14:55:04Z</time>
      </trkpt>
      <trkpt lat="45.38182" lon="4.45271">
        <ele>830</ele>
        <time>2022-03-11T14:55:52Z</time>
      </trkpt>
      <trkpt lat="45.38213" lon="4.45205">
        <ele>833</ele>
        <time>2022-03-11T14:56:20Z</time>
      </trkpt>
      <trkpt lat="45.38226" lon="4.45089">
        <ele>830</ele>
        <time>2022-03-11T14:57:01Z</time>
      </trkpt>
      <trkpt lat="45.38234" lon="4.45052">
        <ele>825</ele>
        <time>2022-03-11T14:57:14Z</time>
      </trkpt>
      <trkpt lat="45.38227" lon="4.44966">
        <ele>822</ele>
        <time>2022-03-11T14:57:45Z</time>
      </trkpt>
      <trkpt lat="45.38329" lon="4.44915">
        <ele>817</ele>
        <time>2022-03-11T14:58:39Z</time>
      </trkpt>
      <trkpt lat="45.38354" lon="4.44854">
        <ele>812</ele>
        <time>2022-03-11T14:59:04Z</time>
      </trkpt>
      <trkpt lat="45.3841" lon="4.44825">
        <ele>811</ele>
        <time>2022-03-11T14:59:34Z</time>
      </trkpt>
      <trkpt lat="45.38528" lon="4.44748">
        <ele>802</ele>
        <time>2022-03-11T15:00:39Z</time>
      </trkpt>
      <trkpt lat="45.38657" lon="4.44888">
        <ele>821</ele>
        <time>2022-03-11T15:02:00Z</time>
      </trkpt>
      <trkpt lat="45.38745" lon="4.44847">
        <ele>807</ele>
        <time>2022-03-11T15:02:46Z</time>
      </trkpt>
      <trkpt lat="45.38801" lon="4.44752">
        <ele>799</ele>
        <time>2022-03-11T15:03:30Z</time>
      </trkpt>
      <trkpt lat="45.38905" lon="4.44696">
        <ele>790</ele>
        <time>2022-03-11T15:04:25Z</time>
      </trkpt>
      <trkpt lat="45.38979" lon="4.4485">
        <ele>810</ele>
        <time>2022-03-11T15:05:31Z</time>
      </trkpt>
      <trkpt lat="45.39042" lon="4.44842">
        <ele>806</ele>
        <time>2022-03-11T15:06:03Z</time>
      </trkpt>
      <trkpt lat="45.39217" lon="4.44767">
        <ele>796</ele>
        <time>2022-03-11T15:07:34Z</time>
      </trkpt>
      <trkpt lat="45.39309" lon="4.44739">
        <ele>788</ele>
        <time>2022-03-11T15:08:21Z</time>
      </trkpt>
      <trkpt lat="45.39389" lon="4.44967">
        <ele>780</ele>
        <time>2022-03-11T15:09:51Z</time>
      </trkpt>
      <trkpt lat="45.39388" lon="4.45001">
        <ele>783</ele>
        <time>2022-03-11T15:10:03Z</time>
      </trkpt>
      <trkpt lat="45.39423" lon="4.44996">
        <ele>771</ele>
        <time>2022-03-11T15:10:20Z</time>
      </trkpt>
      <trkpt lat="45.39424" lon="4.4497">
        <ele>768</ele>
        <time>2022-03-11T15:10:29Z</time>
      </trkpt>
      <trkpt lat="45.39436" lon="4.44882">
        <ele>757</ele>
        <time>2022-03-11T15:11:01Z</time>
      </trkpt>
      <trkpt lat="45.39457" lon="4.44942">
        <ele>757</ele>
        <time>2022-03-11T15:11:24Z</time>
      </trkpt>
      <trkpt lat="45.39501" lon="4.44859">
        <ele>727</ele>
        <time>2022-03-11T15:12:01Z</time>
      </trkpt>
      <trkpt lat="45.39515" lon="4.4484">
        <ele>721</ele>
        <time>2022-03-11T15:12:11Z</time>
      </trkpt>
      <trkpt lat="45.39499" lon="4.44787">
        <ele>722</ele>
        <time>2022-03-11T15:12:31Z</time>
      </trkpt>
      <trkpt lat="45.39503" lon="4.44733">
        <ele>725</ele>
        <time>2022-03-11T15:12:50Z</time>
      </trkpt>
      <trkpt lat="45.3952" lon="4.4468">
        <ele>734</ele>
        <time>2022-03-11T15:13:10Z</time>
      </trkpt>
      <trkpt lat="45.39473" lon="4.44703">
        <ele>740</ele>
        <time>2022-03-11T15:13:35Z</time>
      </trkpt>
      <trkpt lat="45.39428" lon="4.44686">
        <ele>752</ele>
        <time>2022-03-11T15:13:59Z</time>
      </trkpt>
      <trkpt lat="45.39379" lon="4.44543">
        <ele>774</ele>
        <time>2022-03-11T15:14:55Z</time>
      </trkpt>
      <trkpt lat="45.39338" lon="4.44553">
        <ele>776</ele>
        <time>2022-03-11T15:15:15Z</time>
      </trkpt>
      <trkpt lat="45.39325" lon="4.44616">
        <ele>776</ele>
        <time>2022-03-11T15:15:38Z</time>
      </trkpt>
      <trkpt lat="45.39307" lon="4.44641">
        <ele>779</ele>
        <time>2022-03-11T15:15:51Z</time>
      </trkpt>
      <trkpt lat="45.39268" lon="4.44521">
        <ele>804</ele>
        <time>2022-03-11T15:16:37Z</time>
      </trkpt>
      <trkpt lat="45.39187" lon="4.44557">
        <ele>802</ele>
        <time>2022-03-11T15:17:20Z</time>
      </trkpt>
      <trkpt lat="45.39028" lon="4.44601">
        <ele>800</ele>
        <time>2022-03-11T15:18:41Z</time>
      </trkpt>
      <trkpt lat="45.38968" lon="4.44504">
        <ele>840</ele>
        <time>2022-03-11T15:19:26Z</time>
      </trkpt>
      <trkpt lat="45.38839" lon="4.44467">
        <ele>863</ele>
        <time>2022-03-11T15:20:32Z</time>
      </trkpt>
      <trkpt lat="45.38799" lon="4.44492">
        <ele>859</ele>
        <time>2022-03-11T15:20:54Z</time>
      </trkpt>
      <trkpt lat="45.38686" lon="4.44575">
        <ele>853</ele>
        <time>2022-03-11T15:21:58Z</time>
      </trkpt>
      <trkpt lat="45.38678" lon="4.44668">
        <ele>830</ele>
        <time>2022-03-11T15:22:31Z</time>
      </trkpt>
      <trkpt lat="45.38603" lon="4.4456">
        <ele>849</ele>
        <time>2022-03-11T15:23:24Z</time>
      </trkpt>
      <trkpt lat="45.38564" lon="4.44573">
        <ele>840</ele>
        <time>2022-03-11T15:23:44Z</time>
      </trkpt>
      <trkpt lat="45.38521" lon="4.44559">
        <ele>841</ele>
        <time>2022-03-11T15:24:06Z</time>
      </trkpt>
      <trkpt lat="45.38486" lon="4.44505">
        <ele>856</ele>
        <time>2022-03-11T15:24:32Z</time>
      </trkpt>
      <trkpt lat="45.38409" lon="4.44621">
        <ele>853</ele>
        <time>2022-03-11T15:25:28Z</time>
      </trkpt>
      <trkpt lat="45.38349" lon="4.44648">
        <ele>860</ele>
        <time>2022-03-11T15:26:00Z</time>
      </trkpt>
      <trkpt lat="45.38322" lon="4.44674">
        <ele>857</ele>
        <time>2022-03-11T15:26:16Z</time>
      </trkpt>
      <trkpt lat="45.38261" lon="4.44674">
        <ele>872</ele>
        <time>2022-03-11T15:26:46Z</time>
      </trkpt>
      <trkpt lat="45.38196" lon="4.44776">
        <ele>864</ele>
        <time>2022-03-11T15:27:35Z</time>
      </trkpt>
      <trkpt lat="45.38092" lon="4.44877">
        <ele>880</ele>
        <time>2022-03-11T15:28:38Z</time>
      </trkpt>
      <trkpt lat="45.38065" lon="4.45011">
        <ele>883</ele>
        <time>2022-03-11T15:29:27Z</time>
      </trkpt>
      <trkpt lat="45.38061" lon="4.4517">
        <ele>885</ele>
        <time>2022-03-11T15:30:23Z</time>
      </trkpt>
      <trkpt lat="45.38" lon="4.45264">
        <ele>899</ele>
        <time>2022-03-11T15:31:08Z</time>
      </trkpt>
      <trkpt lat="45.37994" lon="4.45317">
        <ele>892</ele>
        <time>2022-03-11T15:31:27Z</time>
      </trkpt>
      <trkpt lat="45.37984" lon="4.45365">
        <ele>884</ele>
        <time>2022-03-11T15:31:44Z</time>
      </trkpt>
      <trkpt lat="45.37961" lon="4.4537">
        <ele>890</ele>
        <time>2022-03-11T15:31:56Z</time>
      </trkpt>
      <trkpt lat="45.37984" lon="4.4523">
        <ele>909</ele>
        <time>2022-03-11T15:32:46Z</time>
      </trkpt>
      <trkpt lat="45.37996" lon="4.45178">
        <ele>909</ele>
        <time>2022-03-11T15:33:06Z</time>
      </trkpt>
      <trkpt lat="45.37983" lon="4.45121">
        <ele>914</ele>
        <time>2022-03-11T15:33:27Z</time>
      </trkpt>
      <trkpt lat="45.37976" lon="4.45008">
        <ele>920</ele>
        <time>2022-03-11T15:34:07Z</time>
      </trkpt>
      <trkpt lat="45.37964" lon="4.44909">
        <ele>929</ele>
        <time>2022-03-11T15:34:42Z</time>
      </trkpt>
      <trkpt lat="45.38002" lon="4.44751">
        <ele>937</ele>
        <time>2022-03-11T15:35:41Z</time>
      </trkpt>
      <trkpt lat="45.37897" lon="4.44871">
        <ele>955</ele>
        <time>2022-03-11T15:36:48Z</time>
      </trkpt>
      <trkpt lat="45.37848" lon="4.44993">
        <ele>962</ele>
        <time>2022-03-11T15:37:37Z</time>
      </trkpt>
      <trkpt lat="45.37792" lon="4.45055">
        <ele>978</ele>
        <time>2022-03-11T15:38:13Z</time>
      </trkpt>
      <trkpt lat="45.37744" lon="4.45088">
        <ele>990</ele>
        <time>2022-03-11T15:38:40Z</time>
      </trkpt>
      <trkpt lat="45.37589" lon="4.45144">
        <ele>1011</ele>
        <time>2022-03-11T15:40:00Z</time>
      </trkpt>
      <trkpt lat="45.37532" lon="4.45034">
        <ele>1026</ele>
        <time>2022-03-11T15:40:48Z</time>
      </trkpt>
      <trkpt lat="45.37457" lon="4.45013">
        <ele>1027</ele>
        <time>2022-03-11T15:41:26Z</time>
      </trkpt>
      <trkpt lat="45.37435" lon="4.449">
        <ele>1022</ele>
        <time>2022-03-11T15:42:07Z</time>
      </trkpt>
      <trkpt lat="45.37375" lon="4.44798">
        <ele>1015</ele>
        <time>2022-03-11T15:42:54Z</time>
      </trkpt>
      <trkpt lat="45.37317" lon="4.44779">
        <ele>1011</ele>
        <time>2022-03-11T15:43:24Z</time>
      </trkpt>
      <trkpt lat="45.37168" lon="4.44739">
        <ele>1005</ele>
        <time>2022-03-11T15:44:40Z</time>
      </trkpt>
      <trkpt lat="45.36928" lon="4.44773">
        <ele>1010</ele>
        <time>2022-03-11T15:46:40Z</time>
      </trkpt>
      <trkpt lat="45.36955" lon="4.44681">
        <ele>1011</ele>
        <time>2022-03-11T15:47:15Z</time>
      </trkpt>
      <trkpt lat="45.36939" lon="4.4463">
        <ele>1015</ele>
        <time>2022-03-11T15:47:35Z</time>
      </trkpt>
      <trkpt lat="45.36814" lon="4.44694">
        <ele>1034</ele>
        <time>2022-03-11T15:48:41Z</time>
      </trkpt>
      <trkpt lat="45.36768" lon="4.44743">
        <ele>1040</ele>
        <time>2022-03-11T15:49:10Z</time>
      </trkpt>
      <trkpt lat="45.36704" lon="4.44864">
        <ele>1049</ele>
        <time>2022-03-11T15:50:03Z</time>
      </trkpt>
      <trkpt lat="45.3666" lon="4.44939">
        <ele>1049</ele>
        <time>2022-03-11T15:50:38Z</time>
      </trkpt>
      <trkpt lat="45.36567" lon="4.45029">
        <ele>1036</ele>
        <time>2022-03-11T15:51:34Z</time>
      </trkpt>
      <trkpt lat="45.36475" lon="4.45203">
        <ele>1035</ele>
        <time>2022-03-11T15:52:51Z</time>
      </trkpt>
      <trkpt lat="45.36437" lon="4.45199">
        <ele>1034</ele>
        <time>2022-03-11T15:53:10Z</time>
      </trkpt>
      <trkpt lat="45.36396" lon="4.45291">
        <ele>1038</ele>
        <time>2022-03-11T15:53:48Z</time>
      </trkpt>
      <trkpt lat="45.36387" lon="4.45325">
        <ele>1041</ele>
        <time>2022-03-11T15:54:01Z</time>
      </trkpt>
      <trkpt lat="45.36336" lon="4.45342">
        <ele>1045</ele>
        <time>2022-03-11T15:54:27Z</time>
      </trkpt>
      <trkpt lat="45.36314" lon="4.4522">
        <ele>1042</ele>
        <time>2022-03-11T15:55:11Z</time>
      </trkpt>
      <trkpt lat="45.36277" lon="4.45109">
        <ele>1046</ele>
        <time>2022-03-11T15:55:54Z</time>
      </trkpt>
      <trkpt lat="45.36169" lon="4.44997">
        <ele>1050</ele>
        <time>2022-03-11T15:57:01Z</time>
      </trkpt>
      <trkpt lat="45.36074" lon="4.44932">
        <ele>1047</ele>
        <time>2022-03-11T15:57:54Z</time>
      </trkpt>
      <trkpt lat="45.36022" lon="4.44932">
        <ele>1046</ele>
        <time>2022-03-11T15:58:20Z</time>
      </trkpt>
      <trkpt lat="45.35981" lon="4.44946">
        <ele>1044</ele>
        <time>2022-03-11T15:58:41Z</time>
      </trkpt>
      <trkpt lat="45.35918" lon="4.4488">
        <ele>1042</ele>
        <time>2022-03-11T15:59:20Z</time>
      </trkpt>
      <trkpt lat="45.35859" lon="4.44701">
        <ele>1050</ele>
        <time>2022-03-11T16:00:30Z</time>
      </trkpt>
      <trkpt lat="45.35825" lon="4.44613">
        <ele>1050</ele>
        <time>2022-03-11T16:01:05Z</time>
      </trkpt>
      <trkpt lat="45.35468" lon="4.44507">
        <ele>1035</ele>
        <time>2022-03-11T16:04:08Z</time>
      </trkpt>
      <trkpt lat="45.35374" lon="4.44346">
        <ele>1035</ele>
        <time>2022-03-11T16:05:21Z</time>
      </trkpt>
      <trkpt lat="45.35141" lon="4.44355">
        <ele>1033</ele>
        <time>2022-03-11T16:07:18Z</time>
      </trkpt>
      <trkpt lat="45.35002" lon="4.44372">
        <ele>1031</ele>
        <time>2022-03-11T16:08:28Z</time>
      </trkpt>
      <trkpt lat="45.34781" lon="4.4447">
        <ele>1000</ele>
        <time>2022-03-11T16:10:24Z</time>
      </trkpt>
      <trkpt lat="45.34728" lon="4.44428">
        <ele>993</ele>
        <time>2022-03-11T16:10:54Z</time>
      </trkpt>
      <trkpt lat="45.34702" lon="4.44371">
        <ele>988</ele>
        <time>2022-03-11T16:11:18Z</time>
      </trkpt>
      <trkpt lat="45.34696" lon="4.44307">
        <ele>986</ele>
        <time>2022-03-11T16:11:41Z</time>
      </trkpt>
      <trkpt lat="45.34667" lon="4.44355">
        <ele>981</ele>
        <time>2022-03-11T16:12:03Z</time>
      </trkpt>
      <trkpt lat="45.34723" lon="4.44517">
        <ele>991</ele>
        <time>2022-03-11T16:13:06Z</time>
      </trkpt>
      <trkpt lat="45.34684" lon="4.44454">
        <ele>985</ele>
        <time>2022-03-11T16:13:36Z</time>
      </trkpt>
      <trkpt lat="45.3465" lon="4.44424">
        <ele>979</ele>
        <time>2022-03-11T16:13:56Z</time>
      </trkpt>
      <trkpt lat="45.34624" lon="4.44495">
        <ele>986</ele>
        <time>2022-03-11T16:14:24Z</time>
      </trkpt>
      <trkpt lat="45.34729" lon="4.44623">
        <ele>997</ele>
        <time>2022-03-11T16:15:33Z</time>
      </trkpt>
      <trkpt lat="45.34764" lon="4.44808">
        <ele>1007</ele>
        <time>2022-03-11T16:16:41Z</time>
      </trkpt>
      <trkpt lat="45.34721" lon="4.4496">
        <ele>1009</ele>
        <time>2022-03-11T16:17:38Z</time>
      </trkpt>
      <trkpt lat="45.34572" lon="4.45149">
        <ele>1013</ele>
        <time>2022-03-11T16:19:18Z</time>
      </trkpt>
      <trkpt lat="45.34427" lon="4.45246">
        <ele>1014</ele>
        <time>2022-03-11T16:20:38Z</time>
      </trkpt>
      <trkpt lat="45.3436" lon="4.45325">
        <ele>1010</ele>
        <time>2022-03-11T16:21:22Z</time>
      </trkpt>
      <trkpt lat="45.34243" lon="4.45454">
        <ele>1016</ele>
        <time>2022-03-11T16:22:36Z</time>
      </trkpt>
      <trkpt lat="45.34196" lon="4.45674">
        <ele>1021</ele>
        <time>2022-03-11T16:23:57Z</time>
      </trkpt>
      <trkpt lat="45.34128" lon="4.45893">
        <ele>1028</ele>
        <time>2022-03-11T16:25:21Z</time>
      </trkpt>
      <trkpt lat="45.34081" lon="4.45937">
        <ele>1031</ele>
        <time>2022-03-11T16:25:49Z</time>
      </trkpt>
      <trkpt lat="45.34025" lon="4.45954">
        <ele>1035</ele>
        <time>2022-03-11T16:26:18Z</time>
      </trkpt>
      <trkpt lat="45.33858" lon="4.45968">
        <ele>1035</ele>
        <time>2022-03-11T16:27:42Z</time>
      </trkpt>
      <trkpt lat="45.33826" lon="4.45917">
        <ele>1034</ele>
        <time>2022-03-11T16:28:06Z</time>
      </trkpt>
      <trkpt lat="45.33796" lon="4.45904">
        <ele>1031</ele>
        <time>2022-03-11T16:28:21Z</time>
      </trkpt>
      <trkpt lat="45.33763" lon="4.45923">
        <ele>1029</ele>
        <time>2022-03-11T16:28:39Z</time>
      </trkpt>
      <trkpt lat="45.33703" lon="4.45862">
        <ele>1024</ele>
        <time>2022-03-11T16:29:16Z</time>
      </trkpt>
      <trkpt lat="45.33575" lon="4.45772">
        <ele>1013</ele>
        <time>2022-03-11T16:30:27Z</time>
      </trkpt>
      <trkpt lat="45.33388" lon="4.45678">
        <ele>1001</ele>
        <time>2022-03-11T16:32:07Z</time>
      </trkpt>
      <trkpt lat="45.33345" lon="4.45563">
        <ele>994</ele>
        <time>2022-03-11T16:32:52Z</time>
      </trkpt>
      <trkpt lat="45.33344" lon="4.45624">
        <ele>994</ele>
        <time>2022-03-11T16:33:14Z</time>
      </trkpt>
      <trkpt lat="45.33357" lon="4.45719">
        <ele>995</ele>
        <time>2022-03-11T16:33:48Z</time>
      </trkpt>
      <trkpt lat="45.33349" lon="4.45783">
        <ele>994</ele>
        <time>2022-03-11T16:34:11Z</time>
      </trkpt>
      <trkpt lat="45.33284" lon="4.45816">
        <ele>995</ele>
        <time>2022-03-11T16:34:45Z</time>
      </trkpt>
      <trkpt lat="45.33252" lon="4.45862">
        <ele>999</ele>
        <time>2022-03-11T16:35:08Z</time>
      </trkpt>
      <trkpt lat="45.33241" lon="4.4593">
        <ele>1005</ele>
        <time>2022-03-11T16:35:33Z</time>
      </trkpt>
      <trkpt lat="45.33177" lon="4.45975">
        <ele>1011</ele>
        <time>2022-03-11T16:36:08Z</time>
      </trkpt>
      <trkpt lat="45.33128" lon="4.46062">
        <ele>1022</ele>
        <time>2022-03-11T16:36:48Z</time>
      </trkpt>
      <trkpt lat="45.33094" lon="4.46112">
        <ele>1025</ele>
        <time>2022-03-11T16:37:12Z</time>
      </trkpt>
      <trkpt lat="45.33039" lon="4.46123">
        <ele>1025</ele>
        <time>2022-03-11T16:37:40Z</time>
      </trkpt>
      <trkpt lat="45.33003" lon="4.46095">
        <ele>1022</ele>
        <time>2022-03-11T16:38:00Z</time>
      </trkpt>
      <trkpt lat="45.33016" lon="4.45984">
        <ele>1023</ele>
        <time>2022-03-11T16:38:40Z</time>
      </trkpt>
      <trkpt lat="45.33014" lon="4.45797">
        <ele>1032</ele>
        <time>2022-03-11T16:39:46Z</time>
      </trkpt>
      <trkpt lat="45.32984" lon="4.45755">
        <ele>1036</ele>
        <time>2022-03-11T16:40:07Z</time>
      </trkpt>
      <trkpt lat="45.32985" lon="4.45686">
        <ele>1032</ele>
        <time>2022-03-11T16:40:31Z</time>
      </trkpt>
      <trkpt lat="45.32937" lon="4.45593">
        <ele>1036</ele>
        <time>2022-03-11T16:41:12Z</time>
      </trkpt>
      <trkpt lat="45.32892" lon="4.4558">
        <ele>1041</ele>
        <time>2022-03-11T16:41:35Z</time>
      </trkpt>
      <trkpt lat="45.32819" lon="4.45674">
        <ele>1049</ele>
        <time>2022-03-11T16:42:24Z</time>
      </trkpt>
      <trkpt lat="45.32792" lon="4.45645">
        <ele>1052</ele>
        <time>2022-03-11T16:42:41Z</time>
      </trkpt>
      <trkpt lat="45.32746" lon="4.4575">
        <ele>1063</ele>
        <time>2022-03-11T16:43:25Z</time>
      </trkpt>
      <trkpt lat="45.32702" lon="4.45724">
        <ele>1070</ele>
        <time>2022-03-11T16:43:48Z</time>
      </trkpt>
      <trkpt lat="45.32666" lon="4.45719">
        <ele>1076</ele>
        <time>2022-03-11T16:44:06Z</time>
      </trkpt>
      <trkpt lat="45.32635" lon="4.45652">
        <ele>1084</ele>
        <time>2022-03-11T16:44:35Z</time>
      </trkpt>
      <trkpt lat="45.325" lon="4.45583">
        <ele>1114</ele>
        <time>2022-03-11T16:45:46Z</time>
      </trkpt>
      <trkpt lat="45.32412" lon="4.45501">
        <ele>1110</ele>
        <time>2022-03-11T16:46:39Z</time>
      </trkpt>
      <trkpt lat="45.32313" lon="4.45351">
        <ele>1091</ele>
        <time>2022-03-11T16:47:51Z</time>
      </trkpt>
      <trkpt lat="45.32312" lon="4.45286">
        <ele>1079</ele>
        <time>2022-03-11T16:48:14Z</time>
      </trkpt>
      <trkpt lat="45.32237" lon="4.45295">
        <ele>1089</ele>
        <time>2022-03-11T16:48:52Z</time>
      </trkpt>
      <trkpt lat="45.32207" lon="4.45249">
        <ele>1087</ele>
        <time>2022-03-11T16:49:14Z</time>
      </trkpt>
      <trkpt lat="45.3219" lon="4.45184">
        <ele>1087</ele>
        <time>2022-03-11T16:49:39Z</time>
      </trkpt>
      <trkpt lat="45.32159" lon="4.45129">
        <ele>1091</ele>
        <time>2022-03-11T16:50:03Z</time>
      </trkpt>
      <trkpt lat="45.32163" lon="4.45075">
        <ele>1091</ele>
        <time>2022-03-11T16:50:22Z</time>
      </trkpt>
      <trkpt lat="45.32215" lon="4.45073">
        <ele>1091</ele>
        <time>2022-03-11T16:50:48Z</time>
      </trkpt>
      <trkpt lat="45.32246" lon="4.44995">
        <ele>1098</ele>
        <time>2022-03-11T16:51:20Z</time>
      </trkpt>
      <trkpt lat="45.32273" lon="4.4496">
        <ele>1095</ele>
        <time>2022-03-11T16:51:38Z</time>
      </trkpt>
      <trkpt lat="45.323" lon="4.44942">
        <ele>1090</ele>
        <time>2022-03-11T16:51:53Z</time>
      </trkpt>
      <trkpt lat="45.32273" lon="4.44931">
        <ele>1096</ele>
        <time>2022-03-11T16:52:07Z</time>
      </trkpt>
      <trkpt lat="45.32225" lon="4.44898">
        <ele>1106</ele>
        <time>2022-03-11T16:52:34Z</time>
      </trkpt>
      <trkpt lat="45.32147" lon="4.44893">
        <ele>1114</ele>
        <time>2022-03-11T16:53:13Z</time>
      </trkpt>
      <trkpt lat="45.32065" lon="4.44882">
        <ele>1124</ele>
        <time>2022-03-11T16:53:54Z</time>
      </trkpt>
      <trkpt lat="45.32028" lon="4.44848">
        <ele>1128</ele>
        <time>2022-03-11T16:54:16Z</time>
      </trkpt>
      <trkpt lat="45.31947" lon="4.44858">
        <ele>1135</ele>
        <time>2022-03-11T16:54:57Z</time>
      </trkpt>
      <trkpt lat="45.31913" lon="4.44843">
        <ele>1137</ele>
        <time>2022-03-11T16:55:15Z</time>
      </trkpt>
      <trkpt lat="45.31917" lon="4.4478">
        <ele>1131</ele>
        <time>2022-03-11T16:55:37Z</time>
      </trkpt>
      <trkpt lat="45.31843" lon="4.44767">
        <ele>1137</ele>
        <time>2022-03-11T16:56:14Z</time>
      </trkpt>
      <trkpt lat="45.31824" lon="4.44734">
        <ele>1138</ele>
        <time>2022-03-11T16:56:29Z</time>
      </trkpt>
      <trkpt lat="45.31699" lon="4.44721">
        <ele>1166</ele>
        <time>2022-03-11T16:57:32Z</time>
      </trkpt>
      <trkpt lat="45.31658" lon="4.44607">
        <ele>1167</ele>
        <time>2022-03-11T16:58:17Z</time>
      </trkpt>
      <trkpt lat="45.31628" lon="4.44551">
        <ele>1167</ele>
        <time>2022-03-11T16:58:42Z</time>
      </trkpt>
      <trkpt lat="45.31554" lon="4.44499">
        <ele>1174</ele>
        <time>2022-03-11T16:59:23Z</time>
      </trkpt>
      <trkpt lat="45.31636" lon="4.44558">
        <ele>1166</ele>
        <time>2022-03-11T17:00:09Z</time>
      </trkpt>
      <trkpt lat="45.31535" lon="4.44487">
        <ele>1176</ele>
        <time>2022-03-11T17:01:06Z</time>
      </trkpt>
      <trkpt lat="45.31502" lon="4.44489">
        <ele>1181</ele>
        <time>2022-03-11T17:01:22Z</time>
      </trkpt>
      <trkpt lat="45.3145" lon="4.44486">
        <ele>1184</ele>
        <time>2022-03-11T17:01:48Z</time>
      </trkpt>
      <trkpt lat="45.31295" lon="4.44521">
        <ele>1194</ele>
        <time>2022-03-11T17:03:07Z</time>
      </trkpt>
      <trkpt lat="45.31195" lon="4.44436">
        <ele>1201</ele>
        <time>2022-03-11T17:04:05Z</time>
      </trkpt>
      <trkpt lat="45.31167" lon="4.44396">
        <ele>1205</ele>
        <time>2022-03-11T17:04:25Z</time>
      </trkpt>
      <trkpt lat="45.31111" lon="4.44237">
        <ele>1205</ele>
        <time>2022-03-11T17:05:27Z</time>
      </trkpt>
      <trkpt lat="45.31014" lon="4.44177">
        <ele>1209</ele>
        <time>2022-03-11T17:06:20Z</time>
      </trkpt>
      <trkpt lat="45.30903" lon="4.44087">
        <ele>1213</ele>
        <time>2022-03-11T17:07:24Z</time>
      </trkpt>
      <trkpt lat="45.30861" lon="4.44056">
        <ele>1215</ele>
        <time>2022-03-11T17:07:48Z</time>
      </trkpt>
      <trkpt lat="45.30807" lon="4.44041">
        <ele>1218</ele>
        <time>2022-03-11T17:08:15Z</time>
      </trkpt>
      <trkpt lat="45.30804" lon="4.44219">
        <ele>1227</ele>
        <time>2022-03-11T17:09:18Z</time>
      </trkpt>
      <trkpt lat="45.3076" lon="4.44429">
        <ele>1238</ele>
        <time>2022-03-11T17:10:35Z</time>
      </trkpt>
      <trkpt lat="45.30719" lon="4.44472">
        <ele>1238</ele>
        <time>2022-03-11T17:11:01Z</time>
      </trkpt>
      <trkpt lat="45.3068" lon="4.44477">
        <ele>1237</ele>
        <time>2022-03-11T17:11:20Z</time>
      </trkpt>
      <trkpt lat="45.30647" lon="4.44475">
        <ele>1237</ele>
        <time>2022-03-11T17:11:37Z</time>
      </trkpt>
      <trkpt lat="45.3061" lon="4.44455">
        <ele>1236</ele>
        <time>2022-03-11T17:11:57Z</time>
      </trkpt>
      <trkpt lat="45.30616" lon="4.44477">
        <ele>1238</ele>
        <time>2022-03-11T17:12:05Z</time>
      </trkpt>
      <trkpt lat="45.30621" lon="4.44519">
        <ele>1240</ele>
        <time>2022-03-11T17:12:20Z</time>
      </trkpt>
      <trkpt lat="45.3069" lon="4.44527">
        <ele>1239</ele>
        <time>2022-03-11T17:12:55Z</time>
      </trkpt>
      <trkpt lat="45.30822" lon="4.44577">
        <ele>1234</ele>
        <time>2022-03-11T17:14:03Z</time>
      </trkpt>
      <trkpt lat="45.30861" lon="4.44604">
        <ele>1230</ele>
        <time>2022-03-11T17:14:25Z</time>
      </trkpt>
      <trkpt lat="45.3093" lon="4.4464">
        <ele>1224</ele>
        <time>2022-03-11T17:15:01Z</time>
      </trkpt>
      <trkpt lat="45.3087" lon="4.44878">
        <ele>1213</ele>
        <time>2022-03-11T17:16:30Z</time>
      </trkpt>
      <trkpt lat="45.30869" lon="4.44953">
        <ele>1212</ele>
        <time>2022-03-11T17:16:57Z</time>
      </trkpt>
      <trkpt lat="45.30921" lon="4.45089">
        <ele>1204</ele>
        <time>2022-03-11T17:17:51Z</time>
      </trkpt>
      <trkpt lat="45.3093" lon="4.45176">
        <ele>1195</ele>
        <time>2022-03-11T17:18:22Z</time>
      </trkpt>
      <trkpt lat="45.31013" lon="4.45119">
        <ele>1188</ele>
        <time>2022-03-11T17:19:08Z</time>
      </trkpt>
      <trkpt lat="45.31123" lon="4.4514">
        <ele>1185</ele>
        <time>2022-03-11T17:20:04Z</time>
      </trkpt>
      <trkpt lat="45.31171" lon="4.45325">
        <ele>1184</ele>
        <time>2022-03-11T17:21:13Z</time>
      </trkpt>
      <trkpt lat="45.31222" lon="4.45367">
        <ele>1183</ele>
        <time>2022-03-11T17:21:43Z</time>
      </trkpt>
      <trkpt lat="45.31247" lon="4.45424">
        <ele>1183</ele>
        <time>2022-03-11T17:22:07Z</time>
      </trkpt>
      <trkpt lat="45.31305" lon="4.45458">
        <ele>1179</ele>
        <time>2022-03-11T17:22:38Z</time>
      </trkpt>
      <trkpt lat="45.31354" lon="4.45547">
        <ele>1170</ele>
        <time>2022-03-11T17:23:18Z</time>
      </trkpt>
      <trkpt lat="45.31408" lon="4.4561">
        <ele>1159</ele>
        <time>2022-03-11T17:23:53Z</time>
      </trkpt>
      <trkpt lat="45.31425" lon="4.45668">
        <ele>1156</ele>
        <time>2022-03-11T17:24:15Z</time>
      </trkpt>
      <trkpt lat="45.31428" lon="4.45915">
        <ele>1152</ele>
        <time>2022-03-11T17:25:42Z</time>
      </trkpt>
      <trkpt lat="45.31401" lon="4.46114">
        <ele>1153</ele>
        <time>2022-03-11T17:26:53Z</time>
      </trkpt>
      <trkpt lat="45.31413" lon="4.46237">
        <ele>1152</ele>
        <time>2022-03-11T17:27:37Z</time>
      </trkpt>
      <trkpt lat="45.31453" lon="4.46391">
        <ele>1147</ele>
        <time>2022-03-11T17:28:34Z</time>
      </trkpt>
      <trkpt lat="45.31509" lon="4.4643">
        <ele>1151</ele>
        <time>2022-03-11T17:29:06Z</time>
      </trkpt>
      <trkpt lat="45.3154" lon="4.46499">
        <ele>1152</ele>
        <time>2022-03-11T17:29:34Z</time>
      </trkpt>
      <trkpt lat="45.31623" lon="4.46546">
        <ele>1150</ele>
        <time>2022-03-11T17:30:19Z</time>
      </trkpt>
      <trkpt lat="45.31679" lon="4.4678">
        <ele>1162</ele>
        <time>2022-03-11T17:31:46Z</time>
      </trkpt>
      <trkpt lat="45.3173" lon="4.46859">
        <ele>1169</ele>
        <time>2022-03-11T17:32:24Z</time>
      </trkpt>
      <trkpt lat="45.3174" lon="4.46959">
        <ele>1178</ele>
        <time>2022-03-11T17:32:59Z</time>
      </trkpt>
      <trkpt lat="45.31806" lon="4.4708">
        <ele>1186</ele>
        <time>2022-03-11T17:33:53Z</time>
      </trkpt>
      <trkpt lat="45.31876" lon="4.47137">
        <ele>1185</ele>
        <time>2022-03-11T17:34:34Z</time>
      </trkpt>
      <trkpt lat="45.31949" lon="4.47279">
        <ele>1181</ele>
        <time>2022-03-11T17:35:36Z</time>
      </trkpt>
      <trkpt lat="45.3198" lon="4.47423">
        <ele>1182</ele>
        <time>2022-03-11T17:36:29Z</time>
      </trkpt>
      <trkpt lat="45.32033" lon="4.47485">
        <ele>1187</ele>
        <time>2022-03-11T17:37:03Z</time>
      </trkpt>
      <trkpt lat="45.32084" lon="4.47654">
        <ele>1192</ele>
        <time>2022-03-11T17:38:08Z</time>
      </trkpt>
      <trkpt lat="45.32322" lon="4.47839">
        <ele>1180</ele>
        <time>2022-03-11T17:40:23Z</time>
      </trkpt>
      <trkpt lat="45.32386" lon="4.47907">
        <ele>1173</ele>
        <time>2022-03-11T17:41:03Z</time>
      </trkpt>
      <trkpt lat="45.32466" lon="4.48132">
        <ele>1155</ele>
        <time>2022-03-11T17:42:32Z</time>
      </trkpt>
      <trkpt lat="45.32548" lon="4.48178">
        <ele>1141</ele>
        <time>2022-03-11T17:43:16Z</time>
      </trkpt>
      <trkpt lat="45.3262" lon="4.4813">
        <ele>1142</ele>
        <time>2022-03-11T17:43:56Z</time>
      </trkpt>
      <trkpt lat="45.32669" lon="4.48135">
        <ele>1144</ele>
        <time>2022-03-11T17:44:21Z</time>
      </trkpt>
      <trkpt lat="45.32711" lon="4.48208">
        <ele>1156</ele>
        <time>2022-03-11T17:44:54Z</time>
      </trkpt>
      <trkpt lat="45.32752" lon="4.48257">
        <ele>1168</ele>
        <time>2022-03-11T17:45:21Z</time>
      </trkpt>
      <trkpt lat="45.32758" lon="4.4831">
        <ele>1170</ele>
        <time>2022-03-11T17:45:39Z</time>
      </trkpt>
      <trkpt lat="45.32762" lon="4.48408">
        <ele>1175</ele>
        <time>2022-03-11T17:46:14Z</time>
      </trkpt>
      <trkpt lat="45.32752" lon="4.4854">
        <ele>1184</ele>
        <time>2022-03-11T17:47:01Z</time>
      </trkpt>
      <trkpt lat="45.32788" lon="4.48692">
        <ele>1200</ele>
        <time>2022-03-11T17:47:57Z</time>
      </trkpt>
      <trkpt lat="45.32803" lon="4.48798">
        <ele>1204</ele>
        <time>2022-03-11T17:48:35Z</time>
      </trkpt>
      <trkpt lat="45.32828" lon="4.48858">
        <ele>1205</ele>
        <time>2022-03-11T17:49:00Z</time>
      </trkpt>
      <trkpt lat="45.32899" lon="4.48963">
        <ele>1208</ele>
        <time>2022-03-11T17:49:51Z</time>
      </trkpt>
      <trkpt lat="45.32905" lon="4.48994">
        <ele>1207</ele>
        <time>2022-03-11T17:50:02Z</time>
      </trkpt>
      <trkpt lat="45.32928" lon="4.49036">
        <ele>1212</ele>
        <time>2022-03-11T17:50:21Z</time>
      </trkpt>
      <trkpt lat="45.32936" lon="4.49276">
        <ele>1224</ele>
        <time>2022-03-11T17:51:46Z</time>
      </trkpt>
      <trkpt lat="45.3296" lon="4.49367">
        <ele>1231</ele>
        <time>2022-03-11T17:52:20Z</time>
      </trkpt>
      <trkpt lat="45.32924" lon="4.4947">
        <ele>1233</ele>
        <time>2022-03-11T17:53:00Z</time>
      </trkpt>
      <trkpt lat="45.3282" lon="4.49715">
        <ele>1232</ele>
        <time>2022-03-11T17:54:41Z</time>
      </trkpt>
      <trkpt lat="45.3282" lon="4.49802">
        <ele>1231</ele>
        <time>2022-03-11T17:55:11Z</time>
      </trkpt>
      <trkpt lat="45.32866" lon="4.49898">
        <ele>1229</ele>
        <time>2022-03-11T17:55:52Z</time>
      </trkpt>
      <trkpt lat="45.32978" lon="4.5006">
        <ele>1232</ele>
        <time>2022-03-11T17:57:12Z</time>
      </trkpt>
      <trkpt lat="45.33056" lon="4.50222">
        <ele>1234</ele>
        <time>2022-03-11T17:58:21Z</time>
      </trkpt>
      <trkpt lat="45.33067" lon="4.50375">
        <ele>1235</ele>
        <time>2022-03-11T17:59:15Z</time>
      </trkpt>
      <trkpt lat="45.33219" lon="4.50362">
        <ele>1244</ele>
        <time>2022-03-11T18:00:32Z</time>
      </trkpt>
      <trkpt lat="45.33221" lon="4.50422">
        <ele>1240</ele>
        <time>2022-03-11T18:00:53Z</time>
      </trkpt>
      <trkpt lat="45.33192" lon="4.50557">
        <ele>1228</ele>
        <time>2022-03-11T18:01:42Z</time>
      </trkpt>
      <trkpt lat="45.33197" lon="4.50593">
        <ele>1224</ele>
        <time>2022-03-11T18:01:55Z</time>
      </trkpt>
      <trkpt lat="45.33249" lon="4.50633">
        <ele>1219</ele>
        <time>2022-03-11T18:02:25Z</time>
      </trkpt>
      <trkpt lat="45.33475" lon="4.50575">
        <ele>1206</ele>
        <time>2022-03-11T18:04:20Z</time>
      </trkpt>
      <trkpt lat="45.33603" lon="4.50527">
        <ele>1211</ele>
        <time>2022-03-11T18:05:26Z</time>
      </trkpt>
      <trkpt lat="45.33669" lon="4.5055">
        <ele>1211</ele>
        <time>2022-03-11T18:06:00Z</time>
      </trkpt>
      <trkpt lat="45.33744" lon="4.50504">
        <ele>1221</ele>
        <time>2022-03-11T18:06:41Z</time>
      </trkpt>
      <trkpt lat="45.33767" lon="4.50519">
        <ele>1226</ele>
        <time>2022-03-11T18:06:54Z</time>
      </trkpt>
      <trkpt lat="45.33792" lon="4.50607">
        <ele>1232</ele>
        <time>2022-03-11T18:07:27Z</time>
      </trkpt>
      <trkpt lat="45.33812" lon="4.50817">
        <ele>1247</ele>
        <time>2022-03-11T18:08:42Z</time>
      </trkpt>
      <trkpt lat="45.33802" lon="4.50945">
        <ele>1242</ele>
        <time>2022-03-11T18:09:27Z</time>
      </trkpt>
      <trkpt lat="45.33824" lon="4.50983">
        <ele>1243</ele>
        <time>2022-03-11T18:09:44Z</time>
      </trkpt>
      <trkpt lat="45.33918" lon="4.51038">
        <ele>1260</ele>
        <time>2022-03-11T18:10:35Z</time>
      </trkpt>
      <trkpt lat="45.33951" lon="4.51062">
        <ele>1265</ele>
        <time>2022-03-11T18:10:54Z</time>
      </trkpt>
      <trkpt lat="45.33989" lon="4.51059">
        <ele>1270</ele>
        <time>2022-03-11T18:11:13Z</time>
      </trkpt>
      <trkpt lat="45.34031" lon="4.511">
        <ele>1274</ele>
        <time>2022-03-11T18:11:38Z</time>
      </trkpt>
      <trkpt lat="45.34083" lon="4.513">
        <ele>1272</ele>
        <time>2022-03-11T18:12:53Z</time>
      </trkpt>
      <trkpt lat="45.34137" lon="4.51413">
        <ele>1266</ele>
        <time>2022-03-11T18:13:41Z</time>
      </trkpt>
      <trkpt lat="45.34215" lon="4.51658">
        <ele>1269</ele>
        <time>2022-03-11T18:15:16Z</time>
      </trkpt>
      <trkpt lat="45.34238" lon="4.51739">
        <ele>1271</ele>
        <time>2022-03-11T18:15:47Z</time>
      </trkpt>
      <trkpt lat="45.34249" lon="4.51792">
        <ele>1273</ele>
        <time>2022-03-11T18:16:06Z</time>
      </trkpt>
      <trkpt lat="45.34319" lon="4.51855">
        <ele>1278</ele>
        <time>2022-03-11T18:16:47Z</time>
      </trkpt>
      <trkpt lat="45.34382" lon="4.52091">
        <ele>1296</ele>
        <time>2022-03-11T18:18:16Z</time>
      </trkpt>
      <trkpt lat="45.34475" lon="4.52245">
        <ele>1301</ele>
        <time>2022-03-11T18:19:28Z</time>
      </trkpt>
      <trkpt lat="45.34505" lon="4.52437">
        <ele>1305</ele>
        <time>2022-03-11T18:20:37Z</time>
      </trkpt>
      <trkpt lat="45.34563" lon="4.5252">
        <ele>1298</ele>
        <time>2022-03-11T18:21:18Z</time>
      </trkpt>
      <trkpt lat="45.3464" lon="4.52554">
        <ele>1290</ele>
        <time>2022-03-11T18:21:58Z</time>
      </trkpt>
      <trkpt lat="45.34716" lon="4.52579">
        <ele>1285</ele>
        <time>2022-03-11T18:22:37Z</time>
      </trkpt>
      <trkpt lat="45.34755" lon="4.52634">
        <ele>1284</ele>
        <time>2022-03-11T18:23:05Z</time>
      </trkpt>
      <trkpt lat="45.34701" lon="4.52698">
        <ele>1285</ele>
        <time>2022-03-11T18:23:40Z</time>
      </trkpt>
      <trkpt lat="45.34686" lon="4.52782">
        <ele>1281</ele>
        <time>2022-03-11T18:24:10Z</time>
      </trkpt>
      <trkpt lat="45.34649" lon="4.52886">
        <ele>1277</ele>
        <time>2022-03-11T18:24:51Z</time>
      </trkpt>
      <trkpt lat="45.34582" lon="4.531">
        <ele>1274</ele>
        <time>2022-03-11T18:26:14Z</time>
      </trkpt>
      <trkpt lat="45.34499" lon="4.53275">
        <ele>1262</ele>
        <time>2022-03-11T18:27:28Z</time>
      </trkpt>
      <trkpt lat="45.34418" lon="4.5339">
        <ele>1252</ele>
        <time>2022-03-11T18:28:25Z</time>
      </trkpt>
      <trkpt lat="45.34401" lon="4.53436">
        <ele>1246</ele>
        <time>2022-03-11T18:28:44Z</time>
      </trkpt>
      <trkpt lat="45.34443" lon="4.53415">
        <ele>1249</ele>
        <time>2022-03-11T18:29:06Z</time>
      </trkpt>
      <trkpt lat="45.34504" lon="4.53369">
        <ele>1251</ele>
        <time>2022-03-11T18:29:41Z</time>
      </trkpt>
      <trkpt lat="45.34607" lon="4.53285">
        <ele>1254</ele>
        <time>2022-03-11T18:30:40Z</time>
      </trkpt>
      <trkpt lat="45.34698" lon="4.53157">
        <ele>1256</ele>
        <time>2022-03-11T18:31:44Z</time>
      </trkpt>
      <trkpt lat="45.34759" lon="4.53174">
        <ele>1248</ele>
        <time>2022-03-11T18:32:15Z</time>
      </trkpt>
      <trkpt lat="45.34822" lon="4.53215">
        <ele>1244</ele>
        <time>2022-03-11T18:32:50Z</time>
      </trkpt>
      <trkpt lat="45.34902" lon="4.53296">
        <ele>1245</ele>
        <time>2022-03-11T18:33:39Z</time>
      </trkpt>
      <trkpt lat="45.3503" lon="4.53348">
        <ele>1250</ele>
        <time>2022-03-11T18:34:45Z</time>
      </trkpt>
      <trkpt lat="45.35086" lon="4.53461">
        <ele>1235</ele>
        <time>2022-03-11T18:35:34Z</time>
      </trkpt>
      <trkpt lat="45.35191" lon="4.53402">
        <ele>1236</ele>
        <time>2022-03-11T18:36:31Z</time>
      </trkpt>
      <trkpt lat="45.35269" lon="4.53415">
        <ele>1225</ele>
        <time>2022-03-11T18:37:10Z</time>
      </trkpt>
      <trkpt lat="45.35336" lon="4.53345">
        <ele>1225</ele>
        <time>2022-03-11T18:37:51Z</time>
      </trkpt>
      <trkpt lat="45.35367" lon="4.53279">
        <ele>1231</ele>
        <time>2022-03-11T18:38:19Z</time>
      </trkpt>
      <trkpt lat="45.35401" lon="4.53174">
        <ele>1243</ele>
        <time>2022-03-11T18:39:00Z</time>
      </trkpt>
      <trkpt lat="45.35491" lon="4.53169">
        <ele>1248</ele>
        <time>2022-03-11T18:39:45Z</time>
      </trkpt>
      <trkpt lat="45.35568" lon="4.53183">
        <ele>1253</ele>
        <time>2022-03-11T18:40:24Z</time>
      </trkpt>
      <trkpt lat="45.35677" lon="4.53345">
        <ele>1228</ele>
        <time>2022-03-11T18:41:43Z</time>
      </trkpt>
      <trkpt lat="45.35709" lon="4.53383">
        <ele>1226</ele>
        <time>2022-03-11T18:42:04Z</time>
      </trkpt>
      <trkpt lat="45.35781" lon="4.5342">
        <ele>1229</ele>
        <time>2022-03-11T18:42:42Z</time>
      </trkpt>
      <trkpt lat="45.35884" lon="4.53403">
        <ele>1222</ele>
        <time>2022-03-11T18:43:34Z</time>
      </trkpt>
      <trkpt lat="45.35978" lon="4.53321">
        <ele>1222</ele>
        <time>2022-03-11T18:44:29Z</time>
      </trkpt>
      <trkpt lat="45.36051" lon="4.53245">
        <ele>1224</ele>
        <time>2022-03-11T18:45:14Z</time>
      </trkpt>
      <trkpt lat="45.36353" lon="4.53084">
        <ele>1212</ele>
        <time>2022-03-11T18:47:56Z</time>
      </trkpt>
      <trkpt lat="45.36513" lon="4.53042">
        <ele>1200</ele>
        <time>2022-03-11T18:49:17Z</time>
      </trkpt>
      <trkpt lat="45.36588" lon="4.52964">
        <ele>1204</ele>
        <time>2022-03-11T18:50:04Z</time>
      </trkpt>
      <trkpt lat="45.36638" lon="4.52854">
        <ele>1214</ele>
        <time>2022-03-11T18:50:50Z</time>
      </trkpt>
      <trkpt lat="45.36717" lon="4.5282">
        <ele>1210</ele>
        <time>2022-03-11T18:51:31Z</time>
      </trkpt>
      <trkpt lat="45.36772" lon="4.52828">
        <ele>1205</ele>
        <time>2022-03-11T18:51:59Z</time>
      </trkpt>
      <trkpt lat="45.36816" lon="4.52862">
        <ele>1205</ele>
        <time>2022-03-11T18:52:24Z</time>
      </trkpt>
      <trkpt lat="45.36858" lon="4.52913">
        <ele>1207</ele>
        <time>2022-03-11T18:52:51Z</time>
      </trkpt>
      <trkpt lat="45.36897" lon="4.53046">
        <ele>1223</ele>
        <time>2022-03-11T18:53:42Z</time>
      </trkpt>
      <trkpt lat="45.36957" lon="4.53318">
        <ele>1246</ele>
        <time>2022-03-11T18:55:22Z</time>
      </trkpt>
      <trkpt lat="45.37012" lon="4.53467">
        <ele>1249</ele>
        <time>2022-03-11T18:56:21Z</time>
      </trkpt>
      <trkpt lat="45.37022" lon="4.53573">
        <ele>1247</ele>
        <time>2022-03-11T18:56:59Z</time>
      </trkpt>
      <trkpt lat="45.36994" lon="4.5375">
        <ele>1244</ele>
        <time>2022-03-11T18:58:03Z</time>
      </trkpt>
      <trkpt lat="45.36998" lon="4.54042">
        <ele>1228</ele>
        <time>2022-03-11T18:59:45Z</time>
      </trkpt>
      <trkpt lat="45.37009" lon="4.54268">
        <ele>1223</ele>
        <time>2022-03-11T19:01:05Z</time>
      </trkpt>
      <trkpt lat="45.36993" lon="4.543">
        <ele>1222</ele>
        <time>2022-03-11T19:01:19Z</time>
      </trkpt>
      <trkpt lat="45.37013" lon="4.54437">
        <ele>1233</ele>
        <time>2022-03-11T19:02:08Z</time>
      </trkpt>
      <trkpt lat="45.37138" lon="4.5469">
        <ele>1271</ele>
        <time>2022-03-11T19:03:57Z</time>
      </trkpt>
      <trkpt lat="45.37218" lon="4.54896">
        <ele>1285</ele>
        <time>2022-03-11T19:05:20Z</time>
      </trkpt>
      <trkpt lat="45.37149" lon="4.55295">
        <ele>1295</ele>
        <time>2022-03-11T19:07:44Z</time>
      </trkpt>
      <trkpt lat="45.37143" lon="4.55411">
        <ele>1297</ele>
        <time>2022-03-11T19:08:25Z</time>
      </trkpt>
      <trkpt lat="45.37116" lon="4.55609">
        <ele>1300</ele>
        <time>2022-03-11T19:09:36Z</time>
      </trkpt>
      <trkpt lat="45.37193" lon="4.55834">
        <ele>1299</ele>
        <time>2022-03-11T19:11:04Z</time>
      </trkpt>
      <trkpt lat="45.37254" lon="4.56081">
        <ele>1304</ele>
        <time>2022-03-11T19:12:36Z</time>
      </trkpt>
      <trkpt lat="45.37315" lon="4.56195">
        <ele>1299</ele>
        <time>2022-03-11T19:13:26Z</time>
      </trkpt>
      <trkpt lat="45.37338" lon="4.56314">
        <ele>1302</ele>
        <time>2022-03-11T19:14:10Z</time>
      </trkpt>
      <trkpt lat="45.37341" lon="4.56414">
        <ele>1303</ele>
        <time>2022-03-11T19:14:45Z</time>
      </trkpt>
      <trkpt lat="45.37325" lon="4.56538">
        <ele>1308</ele>
        <time>2022-03-11T19:15:29Z</time>
      </trkpt>
      <trkpt lat="45.37296" lon="4.56718">
        <ele>1308</ele>
        <time>2022-03-11T19:16:34Z</time>
      </trkpt>
      <trkpt lat="45.37451" lon="4.56928">
        <ele>1308</ele>
        <time>2022-03-11T19:18:21Z</time>
      </trkpt>
      <trkpt lat="45.3748" lon="4.56997">
        <ele>1308</ele>
        <time>2022-03-11T19:18:49Z</time>
      </trkpt>
      <trkpt lat="45.37504" lon="4.5729">
        <ele>1293</ele>
        <time>2022-03-11T19:20:33Z</time>
      </trkpt>
      <trkpt lat="45.37647" lon="4.57407">
        <ele>1295</ele>
        <time>2022-03-11T19:21:56Z</time>
      </trkpt>
      <trkpt lat="45.37773" lon="4.57528">
        <ele>1302</ele>
        <time>2022-03-11T19:23:12Z</time>
      </trkpt>
      <trkpt lat="45.37498" lon="4.57902">
        <ele>1288</ele>
        <time>2022-03-11T19:26:22Z</time>
      </trkpt>
      <trkpt lat="45.37476" lon="4.57965">
        <ele>1289</ele>
        <time>2022-03-11T19:26:47Z</time>
      </trkpt>
      <trkpt lat="45.3736" lon="4.58062">
        <ele>1274</ele>
        <time>2022-03-11T19:27:54Z</time>
      </trkpt>
      <trkpt lat="45.3727" lon="4.58213">
        <ele>1251</ele>
        <time>2022-03-11T19:29:04Z</time>
      </trkpt>
      <trkpt lat="45.37044" lon="4.5848">
        <ele>1212</ele>
        <time>2022-03-11T19:31:31Z</time>
      </trkpt>
      <trkpt lat="45.36933" lon="4.5858">
        <ele>1209</ele>
        <time>2022-03-11T19:32:36Z</time>
      </trkpt>
      <trkpt lat="45.36666" lon="4.58745">
        <ele>1210</ele>
        <time>2022-03-11T19:35:02Z</time>
      </trkpt>
      <trkpt lat="45.36573" lon="4.58704">
        <ele>1196</ele>
        <time>2022-03-11T19:35:51Z</time>
      </trkpt>
      <trkpt lat="45.36446" lon="4.58677">
        <ele>1183</ele>
        <time>2022-03-11T19:36:55Z</time>
      </trkpt>
      <trkpt lat="45.36296" lon="4.58616">
        <ele>1161</ele>
        <time>2022-03-11T19:38:13Z</time>
      </trkpt>
      <trkpt lat="45.36223" lon="4.58636">
        <ele>1150</ele>
        <time>2022-03-11T19:38:50Z</time>
      </trkpt>
      <trkpt lat="45.3614" lon="4.58619">
        <ele>1134</ele>
        <time>2022-03-11T19:39:32Z</time>
      </trkpt>
      <trkpt lat="45.35891" lon="4.58587">
        <ele>1092</ele>
        <time>2022-03-11T19:41:37Z</time>
      </trkpt>
      <trkpt lat="45.35876" lon="4.58674">
        <ele>1087</ele>
        <time>2022-03-11T19:42:09Z</time>
      </trkpt>
      <trkpt lat="45.35903" lon="4.58798">
        <ele>1074</ele>
        <time>2022-03-11T19:42:55Z</time>
      </trkpt>
      <trkpt lat="45.35988" lon="4.58926">
        <ele>1069</ele>
        <time>2022-03-11T19:43:56Z</time>
      </trkpt>
      <trkpt lat="45.35964" lon="4.58942">
        <ele>1063</ele>
        <time>2022-03-11T19:44:10Z</time>
      </trkpt>
      <trkpt lat="45.35931" lon="4.58918">
        <ele>1059</ele>
        <time>2022-03-11T19:44:28Z</time>
      </trkpt>
      <trkpt lat="45.35881" lon="4.58898">
        <ele>1054</ele>
        <time>2022-03-11T19:44:54Z</time>
      </trkpt>
      <trkpt lat="45.35792" lon="4.58899">
        <ele>1041</ele>
        <time>2022-03-11T19:45:39Z</time>
      </trkpt>
      <trkpt lat="45.3575" lon="4.58938">
        <ele>1032</ele>
        <time>2022-03-11T19:46:04Z</time>
      </trkpt>
      <trkpt lat="45.35721" lon="4.58931">
        <ele>1031</ele>
        <time>2022-03-11T19:46:19Z</time>
      </trkpt>
      <trkpt lat="45.35711" lon="4.58956">
        <ele>1031</ele>
        <time>2022-03-11T19:46:29Z</time>
      </trkpt>
      <trkpt lat="45.35678" lon="4.59008">
        <ele>1031</ele>
        <time>2022-03-11T19:46:53Z</time>
      </trkpt>
      <trkpt lat="45.3561" lon="4.59">
        <ele>1029</ele>
        <time>2022-03-11T19:47:28Z</time>
      </trkpt>
      <trkpt lat="45.35435" lon="4.59001">
        <ele>1024</ele>
        <time>2022-03-11T19:48:55Z</time>
      </trkpt>
      <trkpt lat="45.35362" lon="4.59016">
        <ele>1024</ele>
        <time>2022-03-11T19:49:32Z</time>
      </trkpt>
      <trkpt lat="45.35317" lon="4.59">
        <ele>1016</ele>
        <time>2022-03-11T19:49:55Z</time>
      </trkpt>
      <trkpt lat="45.3517" lon="4.59054">
        <ele>1005</ele>
        <time>2022-03-11T19:51:11Z</time>
      </trkpt>
      <trkpt lat="45.35062" lon="4.59125">
        <ele>1001</ele>
        <time>2022-03-11T19:52:11Z</time>
      </trkpt>
      <trkpt lat="45.34997" lon="4.59129">
        <ele>988</ele>
        <time>2022-03-11T19:52:43Z</time>
      </trkpt>
      <trkpt lat="45.34975" lon="4.59191">
        <ele>986</ele>
        <time>2022-03-11T19:53:08Z</time>
      </trkpt>
      <trkpt lat="45.34972" lon="4.59321">
        <ele>976</ele>
        <time>2022-03-11T19:53:53Z</time>
      </trkpt>
      <trkpt lat="45.34942" lon="4.59497">
        <ele>966</ele>
        <time>2022-03-11T19:54:57Z</time>
      </trkpt>
      <trkpt lat="45.34902" lon="4.59657">
        <ele>955</ele>
        <time>2022-03-11T19:55:57Z</time>
      </trkpt>
      <trkpt lat="45.34875" lon="4.59747">
        <ele>949</ele>
        <time>2022-03-11T19:56:31Z</time>
      </trkpt>
      <trkpt lat="45.34857" lon="4.59793">
        <ele>944</ele>
        <time>2022-03-11T19:56:50Z</time>
      </trkpt>
      <trkpt lat="45.34829" lon="4.59843">
        <ele>937</ele>
        <time>2022-03-11T19:57:12Z</time>
      </trkpt>
      <trkpt lat="45.34813" lon="4.5989">
        <ele>930</ele>
        <time>2022-03-11T19:57:31Z</time>
      </trkpt>
      <trkpt lat="45.34719" lon="4.59928">
        <ele>916</ele>
        <time>2022-03-11T19:58:20Z</time>
      </trkpt>
      <trkpt lat="45.34625" lon="4.59959">
        <ele>899</ele>
        <time>2022-03-11T19:59:08Z</time>
      </trkpt>
      <trkpt lat="45.34567" lon="4.59915">
        <ele>893</ele>
        <time>2022-03-11T19:59:41Z</time>
      </trkpt>
      <trkpt lat="45.34517" lon="4.59857">
        <ele>882</ele>
        <time>2022-03-11T20:00:13Z</time>
      </trkpt>
      <trkpt lat="45.34509" lon="4.59909">
        <ele>879</ele>
        <time>2022-03-11T20:00:32Z</time>
      </trkpt>
      <trkpt lat="45.34513" lon="4.59971">
        <ele>873</ele>
        <time>2022-03-11T20:00:54Z</time>
      </trkpt>
      <trkpt lat="45.34534" lon="4.60041">
        <ele>870</ele>
        <time>2022-03-11T20:01:20Z</time>
      </trkpt>
      <trkpt lat="45.34519" lon="4.60115">
        <ele>859</ele>
        <time>2022-03-11T20:01:47Z</time>
      </trkpt>
      <trkpt lat="45.34497" lon="4.60264">
        <ele>847</ele>
        <time>2022-03-11T20:02:41Z</time>
      </trkpt>
      <trkpt lat="45.34473" lon="4.60293">
        <ele>841</ele>
        <time>2022-03-11T20:02:57Z</time>
      </trkpt>
      <trkpt lat="45.34436" lon="4.60254">
        <ele>834</ele>
        <time>2022-03-11T20:03:20Z</time>
      </trkpt>
      <trkpt lat="45.34404" lon="4.60312">
        <ele>829</ele>
        <time>2022-03-11T20:03:46Z</time>
      </trkpt>
      <trkpt lat="45.34422" lon="4.60368">
        <ele>831</ele>
        <time>2022-03-11T20:04:07Z</time>
      </trkpt>
      <trkpt lat="45.34443" lon="4.60407">
        <ele>831</ele>
        <time>2022-03-11T20:04:25Z</time>
      </trkpt>
      <trkpt lat="45.34439" lon="4.6046">
        <ele>826</ele>
        <time>2022-03-11T20:04:43Z</time>
      </trkpt>
      <trkpt lat="45.34495" lon="4.6054">
        <ele>820</ele>
        <time>2022-03-11T20:05:23Z</time>
      </trkpt>
      <trkpt lat="45.34554" lon="4.60689">
        <ele>800</ele>
        <time>2022-03-11T20:06:23Z</time>
      </trkpt>
      <trkpt lat="45.34635" lon="4.60765">
        <ele>787</ele>
        <time>2022-03-11T20:07:12Z</time>
      </trkpt>
      <trkpt lat="45.34658" lon="4.60815">
        <ele>781</ele>
        <time>2022-03-11T20:07:33Z</time>
      </trkpt>
      <trkpt lat="45.34625" lon="4.609">
        <ele>777</ele>
        <time>2022-03-11T20:08:07Z</time>
      </trkpt>
      <trkpt lat="45.34611" lon="4.61014">
        <ele>777</ele>
        <time>2022-03-11T20:08:48Z</time>
      </trkpt>
      <trkpt lat="45.34652" lon="4.61092">
        <ele>786</ele>
        <time>2022-03-11T20:09:22Z</time>
      </trkpt>
      <trkpt lat="45.34732" lon="4.61133">
        <ele>798</ele>
        <time>2022-03-11T20:10:05Z</time>
      </trkpt>
      <trkpt lat="45.34778" lon="4.61208">
        <ele>807</ele>
        <time>2022-03-11T20:10:40Z</time>
      </trkpt>
      <trkpt lat="45.34792" lon="4.61241">
        <ele>810</ele>
        <time>2022-03-11T20:10:53Z</time>
      </trkpt>
      <trkpt lat="45.34826" lon="4.61256">
        <ele>813</ele>
        <time>2022-03-11T20:11:11Z</time>
      </trkpt>
      <trkpt lat="45.34823" lon="4.61291">
        <ele>814</ele>
        <time>2022-03-11T20:11:23Z</time>
      </trkpt>
      <trkpt lat="45.34824" lon="4.61323">
        <ele>814</ele>
        <time>2022-03-11T20:11:35Z</time>
      </trkpt>
      <trkpt lat="45.34879" lon="4.6129">
        <ele>820</ele>
        <time>2022-03-11T20:12:04Z</time>
      </trkpt>
      <trkpt lat="45.34923" lon="4.61411">
        <ele>825</ele>
        <time>2022-03-11T20:12:52Z</time>
      </trkpt>
      <trkpt lat="45.34877" lon="4.61689">
        <ele>831</ele>
        <time>2022-03-11T20:14:33Z</time>
      </trkpt>
      <trkpt lat="45.34975" lon="4.61678">
        <ele>838</ele>
        <time>2022-03-11T20:15:22Z</time>
      </trkpt>
      <trkpt lat="45.34999" lon="4.61682">
        <ele>840</ele>
        <time>2022-03-11T20:15:34Z</time>
      </trkpt>
      <trkpt lat="45.35022" lon="4.61719">
        <ele>842</ele>
        <time>2022-03-11T20:15:51Z</time>
      </trkpt>
      <trkpt lat="45.35065" lon="4.61719">
        <ele>846</ele>
        <time>2022-03-11T20:16:13Z</time>
      </trkpt>
      <trkpt lat="45.35098" lon="4.61757">
        <ele>850</ele>
        <time>2022-03-11T20:16:34Z</time>
      </trkpt>
      <trkpt lat="45.3504" lon="4.61859">
        <ele>840</ele>
        <time>2022-03-11T20:17:20Z</time>
      </trkpt>
      <trkpt lat="45.34989" lon="4.6206">
        <ele>839</ele>
        <time>2022-03-11T20:18:36Z</time>
      </trkpt>
      <trkpt lat="45.34929" lon="4.62121">
        <ele>836</ele>
        <time>2022-03-11T20:19:12Z</time>
      </trkpt>
      <trkpt lat="45.34904" lon="4.62393">
        <ele>837</ele>
        <time>2022-03-11T20:20:49Z</time>
      </trkpt>
      <trkpt lat="45.34878" lon="4.62511">
        <ele>837</ele>
        <time>2022-03-11T20:21:32Z</time>
      </trkpt>
      <trkpt lat="45.34891" lon="4.62718">
        <ele>842</ele>
        <time>2022-03-11T20:22:46Z</time>
      </trkpt>
      <trkpt lat="45.34948" lon="4.62626">
        <ele>852</ele>
        <time>2022-03-11T20:23:29Z</time>
      </trkpt>
      <trkpt lat="45.34967" lon="4.62505">
        <ele>855</ele>
        <time>2022-03-11T20:24:12Z</time>
      </trkpt>
      <trkpt lat="45.35071" lon="4.62502">
        <ele>876</ele>
        <time>2022-03-11T20:25:04Z</time>
      </trkpt>
      <trkpt lat="45.35178" lon="4.6244">
        <ele>886</ele>
        <time>2022-03-11T20:26:02Z</time>
      </trkpt>
      <trkpt lat="45.35277" lon="4.62409">
        <ele>889</ele>
        <time>2022-03-11T20:26:53Z</time>
      </trkpt>
      <trkpt lat="45.35366" lon="4.62453">
        <ele>903</ele>
        <time>2022-03-11T20:27:40Z</time>
      </trkpt>
      <trkpt lat="45.35375" lon="4.62558">
        <ele>915</ele>
        <time>2022-03-11T20:28:17Z</time>
      </trkpt>
      <trkpt lat="45.35397" lon="4.62657">
        <ele>924</ele>
        <time>2022-03-11T20:28:54Z</time>
      </trkpt>
      <trkpt lat="45.35438" lon="4.62719">
        <ele>921</ele>
        <time>2022-03-11T20:29:24Z</time>
      </trkpt>
      <trkpt lat="45.35519" lon="4.62761">
        <ele>913</ele>
        <time>2022-03-11T20:30:07Z</time>
      </trkpt>
      <trkpt lat="45.35637" lon="4.6278">
        <ele>904</ele>
        <time>2022-03-11T20:31:06Z</time>
      </trkpt>
      <trkpt lat="45.35718" lon="4.6283">
        <ele>891</ele>
        <time>2022-03-11T20:31:50Z</time>
      </trkpt>
      <trkpt lat="45.3581" lon="4.62922">
        <ele>884</ele>
        <time>2022-03-11T20:32:47Z</time>
      </trkpt>
      <trkpt lat="45.35909" lon="4.62951">
        <ele>891</ele>
        <time>2022-03-11T20:33:37Z</time>
      </trkpt>
      <trkpt lat="45.36009" lon="4.62822">
        <ele>880</ele>
        <time>2022-03-11T20:34:45Z</time>
      </trkpt>
      <trkpt lat="45.36042" lon="4.62737">
        <ele>875</ele>
        <time>2022-03-11T20:35:19Z</time>
      </trkpt>
      <trkpt lat="45.36106" lon="4.62676">
        <ele>868</ele>
        <time>2022-03-11T20:35:57Z</time>
      </trkpt>
      <trkpt lat="45.36188" lon="4.62686">
        <ele>858</ele>
        <time>2022-03-11T20:36:39Z</time>
      </trkpt>
      <trkpt lat="45.36273" lon="4.62789">
        <ele>832</ele>
        <time>2022-03-11T20:37:35Z</time>
      </trkpt>
      <trkpt lat="45.36209" lon="4.62781">
        <ele>833</ele>
        <time>2022-03-11T20:38:07Z</time>
      </trkpt>
      <trkpt lat="45.36173" lon="4.62974">
        <ele>815</ele>
        <time>2022-03-11T20:39:17Z</time>
      </trkpt>
      <trkpt lat="45.36147" lon="4.63168">
        <ele>809</ele>
        <time>2022-03-11T20:40:26Z</time>
      </trkpt>
      <trkpt lat="45.36152" lon="4.63321">
        <ele>788</ele>
        <time>2022-03-11T20:41:20Z</time>
      </trkpt>
      <trkpt lat="45.361" lon="4.63525">
        <ele>768</ele>
        <time>2022-03-11T20:42:36Z</time>
      </trkpt>
      <trkpt lat="45.3605" lon="4.63625">
        <ele>755</ele>
        <time>2022-03-11T20:43:20Z</time>
      </trkpt>
      <trkpt lat="45.36087" lon="4.63676">
        <ele>750</ele>
        <time>2022-03-11T20:43:45Z</time>
      </trkpt>
      <trkpt lat="45.36125" lon="4.63625">
        <ele>746</ele>
        <time>2022-03-11T20:44:12Z</time>
      </trkpt>
      <trkpt lat="45.36166" lon="4.63616">
        <ele>738</ele>
        <time>2022-03-11T20:44:32Z</time>
      </trkpt>
      <trkpt lat="45.3616" lon="4.63685">
        <ele>732</ele>
        <time>2022-03-11T20:44:57Z</time>
      </trkpt>
      <trkpt lat="45.36175" lon="4.63733">
        <ele>724</ele>
        <time>2022-03-11T20:45:15Z</time>
      </trkpt>
      <trkpt lat="45.36161" lon="4.63777">
        <ele>724</ele>
        <time>2022-03-11T20:45:32Z</time>
      </trkpt>
      <trkpt lat="45.36169" lon="4.63872">
        <ele>722</ele>
        <time>2022-03-11T20:46:06Z</time>
      </trkpt>
      <trkpt lat="45.36111" lon="4.63906">
        <ele>725</ele>
        <time>2022-03-11T20:46:37Z</time>
      </trkpt>
      <trkpt lat="45.35993" lon="4.63916">
        <ele>721</ele>
        <time>2022-03-11T20:47:36Z</time>
      </trkpt>
      <trkpt lat="45.35951" lon="4.6394">
        <ele>712</ele>
        <time>2022-03-11T20:47:59Z</time>
      </trkpt>
      <trkpt lat="45.35905" lon="4.63892">
        <ele>705</ele>
        <time>2022-03-11T20:48:28Z</time>
      </trkpt>
      <trkpt lat="45.35833" lon="4.63974">
        <ele>683</ele>
        <time>2022-03-11T20:49:14Z</time>
      </trkpt>
      <trkpt lat="45.35796" lon="4.63968">
        <ele>675</ele>
        <time>2022-03-11T20:49:32Z</time>
      </trkpt>
      <trkpt lat="45.35701" lon="4.63984">
        <ele>661</ele>
        <time>2022-03-11T20:50:20Z</time>
      </trkpt>
      <trkpt lat="45.35638" lon="4.64062">
        <ele>656</ele>
        <time>2022-03-11T20:51:02Z</time>
      </trkpt>
      <trkpt lat="45.35601" lon="4.64147">
        <ele>652</ele>
        <time>2022-03-11T20:51:37Z</time>
      </trkpt>
      <trkpt lat="45.35586" lon="4.64338">
        <ele>647</ele>
        <time>2022-03-11T20:52:45Z</time>
      </trkpt>
      <trkpt lat="45.35593" lon="4.64502">
        <ele>651</ele>
        <time>2022-03-11T20:53:43Z</time>
      </trkpt>
      <trkpt lat="45.35636" lon="4.64646">
        <ele>638</ele>
        <time>2022-03-11T20:54:38Z</time>
      </trkpt>
      <trkpt lat="45.357" lon="4.64758">
        <ele>632</ele>
        <time>2022-03-11T20:55:28Z</time>
      </trkpt>
      <trkpt lat="45.35745" lon="4.64807">
        <ele>632</ele>
        <time>2022-03-11T20:55:57Z</time>
      </trkpt>
      <trkpt lat="45.35747" lon="4.65016">
        <ele>623</ele>
        <time>2022-03-11T20:57:10Z</time>
      </trkpt>
      <trkpt lat="45.35772" lon="4.65148">
        <ele>610</ele>
        <time>2022-03-11T20:57:58Z</time>
      </trkpt>
      <trkpt lat="45.35808" lon="4.65218">
        <ele>602</ele>
        <time>2022-03-11T20:58:29Z</time>
      </trkpt>
      <trkpt lat="45.35877" lon="4.65138">
        <ele>598</ele>
        <time>2022-03-11T20:59:13Z</time>
      </trkpt>
      <trkpt lat="45.35939" lon="4.65013">
        <ele>594</ele>
        <time>2022-03-11T21:00:07Z</time>
      </trkpt>
      <trkpt lat="45.35991" lon="4.64983">
        <ele>586</ele>
        <time>2022-03-11T21:00:35Z</time>
      </trkpt>
      <trkpt lat="45.36004" lon="4.64886">
        <ele>588</ele>
        <time>2022-03-11T21:01:10Z</time>
      </trkpt>
      <trkpt lat="45.36056" lon="4.64845">
        <ele>592</ele>
        <time>2022-03-11T21:01:40Z</time>
      </trkpt>
      <trkpt lat="45.36121" lon="4.64858">
        <ele>593</ele>
        <time>2022-03-11T21:02:13Z</time>
      </trkpt>
      <trkpt lat="45.36117" lon="4.64793">
        <ele>600</ele>
        <time>2022-03-11T21:02:35Z</time>
      </trkpt>
      <trkpt lat="45.36179" lon="4.64772">
        <ele>605</ele>
        <time>2022-03-11T21:03:07Z</time>
      </trkpt>
      <trkpt lat="45.36211" lon="4.64747">
        <ele>604</ele>
        <time>2022-03-11T21:03:26Z</time>
      </trkpt>
      <trkpt lat="45.36235" lon="4.64713">
        <ele>604</ele>
        <time>2022-03-11T21:03:43Z</time>
      </trkpt>
      <trkpt lat="45.36265" lon="4.64628">
        <ele>611</ele>
        <time>2022-03-11T21:04:16Z</time>
      </trkpt>
      <trkpt lat="45.36288" lon="4.64605">
        <ele>615</ele>
        <time>2022-03-11T21:04:30Z</time>
      </trkpt>
      <trkpt lat="45.36301" lon="4.64613">
        <ele>616</ele>
        <time>2022-03-11T21:04:37Z</time>
      </trkpt>
      <trkpt lat="45.36289" lon="4.64688">
        <ele>611</ele>
        <time>2022-03-11T21:05:04Z</time>
      </trkpt>
      <trkpt lat="45.36281" lon="4.64765">
        <ele>604</ele>
        <time>2022-03-11T21:05:32Z</time>
      </trkpt>
      <trkpt lat="45.36284" lon="4.64815">
        <ele>600</ele>
        <time>2022-03-11T21:05:49Z</time>
      </trkpt>
      <trkpt lat="45.36281" lon="4.64883">
        <ele>594</ele>
        <time>2022-03-11T21:06:13Z</time>
      </trkpt>
      <trkpt lat="45.36269" lon="4.64961">
        <ele>586</ele>
        <time>2022-03-11T21:06:41Z</time>
      </trkpt>
      <trkpt lat="45.36246" lon="4.65048">
        <ele>578</ele>
        <time>2022-03-11T21:07:14Z</time>
      </trkpt>
      <trkpt lat="45.36226" lon="4.65082">
        <ele>575</ele>
        <time>2022-03-11T21:07:30Z</time>
      </trkpt>
      <trkpt lat="45.36219" lon="4.65103">
        <ele>574</ele>
        <time>2022-03-11T21:07:38Z</time>
      </trkpt>
      <trkpt lat="45.3618" lon="4.65194">
        <ele>566</ele>
        <time>2022-03-11T21:08:15Z</time>
      </trkpt>
      <trkpt lat="45.36174" lon="4.65291">
        <ele>560</ele>
        <time>2022-03-11T21:08:49Z</time>
      </trkpt>
      <trkpt lat="45.36188" lon="4.65456">
        <ele>550</ele>
        <time>2022-03-11T21:09:48Z</time>
      </trkpt>
      <trkpt lat="45.36202" lon="4.65547">
        <ele>547</ele>
        <time>2022-03-11T21:10:21Z</time>
      </trkpt>
      <trkpt lat="45.36241" lon="4.65617">
        <ele>541</ele>
        <time>2022-03-11T21:10:52Z</time>
      </trkpt>
      <trkpt lat="45.36316" lon="4.65716">
        <ele>535</ele>
        <time>2022-03-11T21:11:43Z</time>
      </trkpt>
      <trkpt lat="45.36336" lon="4.65764">
        <ele>534</ele>
        <time>2022-03-11T21:12:03Z</time>
      </trkpt>
      <trkpt lat="45.3631" lon="4.65867">
        <ele>528</ele>
        <time>2022-03-11T21:12:41Z</time>
      </trkpt>
      <trkpt lat="45.36476" lon="4.65961">
        <ele>536</ele>
        <time>2022-03-11T21:14:11Z</time>
      </trkpt>
      <trkpt lat="45.36502" lon="4.65969">
        <ele>537</ele>
        <time>2022-03-11T21:14:24Z</time>
      </trkpt>
      <trkpt lat="45.36534" lon="4.66022">
        <ele>537</ele>
        <time>2022-03-11T21:14:49Z</time>
      </trkpt>
      <trkpt lat="45.3661" lon="4.66112">
        <ele>543</ele>
        <time>2022-03-11T21:15:38Z</time>
      </trkpt>
      <trkpt lat="45.36666" lon="4.66082">
        <ele>552</ele>
        <time>2022-03-11T21:16:08Z</time>
      </trkpt>
      <trkpt lat="45.36698" lon="4.66159">
        <ele>555</ele>
        <time>2022-03-11T21:16:39Z</time>
      </trkpt>
      <trkpt lat="45.36749" lon="4.66226">
        <ele>562</ele>
        <time>2022-03-11T21:17:14Z</time>
      </trkpt>
      <trkpt lat="45.36751" lon="4.66203">
        <ele>562</ele>
        <time>2022-03-11T21:17:22Z</time>
      </trkpt>
      <trkpt lat="45.36762" lon="4.66208">
        <ele>562</ele>
        <time>2022-03-11T21:17:28Z</time>
      </trkpt>
      <trkpt lat="45.36778" lon="4.66232">
        <ele>564</ele>
        <time>2022-03-11T21:17:40Z</time>
      </trkpt>
      <trkpt lat="45.36809" lon="4.66266">
        <ele>567</ele>
        <time>2022-03-11T21:17:59Z</time>
      </trkpt>
    </trkseg>
  </trk>
</gpx>